<?xml version="1.0" encoding="UTF-8" standalone="no" ?>
<gpx xmlns="http://www.topografix.com/GPX/1/1" xmlns:xsi="http://www.w3.org/2001/XMLSchema-instance" xsi:schemaLocation="http://www.topografix.com/GPX/1/1 http://www.topografix.com/GPX/1/1/gpx.xsd" version="1.1" creator="VisuGPX - https://www.visugpx.com">
  <metadata>
    <name>Saint Nicolas DG dimanche 24 juillet 2011</name>
    <desc><![CDATA[Tour du Saint Nicolas DG]]></desc>
  </metadata>
  <trk>
    <name><![CDATA[2011-07-24T08:57:20Z]]></name>
    <trkseg>
      <trkpt lat="47.47439" lon="-0.57654">
        <ele>21.286377</ele>
        <time>2011-07-24T08:57:24Z</time>
      </trkpt>
      <trkpt lat="47.47447" lon="-0.57658">
        <ele>21.286377</ele>
        <time>2011-07-24T08:57:27Z</time>
      </trkpt>
      <trkpt lat="47.47456" lon="-0.57661">
        <ele>22.2475586</ele>
        <time>2011-07-24T08:57:30Z</time>
      </trkpt>
      <trkpt lat="47.47459" lon="-0.57664">
        <ele>22.7282715</ele>
        <time>2011-07-24T08:57:31Z</time>
      </trkpt>
      <trkpt lat="47.47473" lon="-0.57673">
        <ele>23.2089844</ele>
        <time>2011-07-24T08:57:36Z</time>
      </trkpt>
      <trkpt lat="47.47477" lon="-0.57677">
        <ele>24.1702881</ele>
        <time>2011-07-24T08:57:38Z</time>
      </trkpt>
      <trkpt lat="47.47487" lon="-0.57691">
        <ele>25.1317139</ele>
        <time>2011-07-24T08:57:43Z</time>
      </trkpt>
      <trkpt lat="47.47492" lon="-0.57699">
        <ele>24.651001</ele>
        <time>2011-07-24T08:57:46Z</time>
      </trkpt>
      <trkpt lat="47.47502" lon="-0.57716">
        <ele>23.2089844</ele>
        <time>2011-07-24T08:57:51Z</time>
      </trkpt>
      <trkpt lat="47.47508" lon="-0.57727">
        <ele>24.1702881</ele>
        <time>2011-07-24T08:57:54Z</time>
      </trkpt>
      <trkpt lat="47.47515" lon="-0.5775">
        <ele>25.6123047</ele>
        <time>2011-07-24T08:58:00Z</time>
      </trkpt>
      <trkpt lat="47.47519" lon="-0.57759">
        <ele>26.0928955</ele>
        <time>2011-07-24T08:58:03Z</time>
      </trkpt>
      <trkpt lat="47.47527" lon="-0.57772">
        <ele>26.5736084</ele>
        <time>2011-07-24T08:58:08Z</time>
      </trkpt>
      <trkpt lat="47.47536" lon="-0.57782">
        <ele>25.1317139</ele>
        <time>2011-07-24T08:58:12Z</time>
      </trkpt>
      <trkpt lat="47.4754" lon="-0.57787">
        <ele>25.6123047</ele>
        <time>2011-07-24T08:58:14Z</time>
      </trkpt>
      <trkpt lat="47.47544" lon="-0.57798">
        <ele>26.5736084</ele>
        <time>2011-07-24T08:58:18Z</time>
      </trkpt>
      <trkpt lat="47.47548" lon="-0.57822">
        <ele>28.4962158</ele>
        <time>2011-07-24T08:58:24Z</time>
      </trkpt>
      <trkpt lat="47.47551" lon="-0.57837">
        <ele>28.9769287</ele>
        <time>2011-07-24T08:58:28Z</time>
      </trkpt>
      <trkpt lat="47.47552" lon="-0.57859">
        <ele>30.8995361</ele>
        <time>2011-07-24T08:58:33Z</time>
      </trkpt>
      <trkpt lat="47.47556" lon="-0.57876">
        <ele>29.4575195</ele>
        <time>2011-07-24T08:58:37Z</time>
      </trkpt>
      <trkpt lat="47.47562" lon="-0.57895">
        <ele>23.6895752</ele>
        <time>2011-07-24T08:58:43Z</time>
      </trkpt>
      <trkpt lat="47.47563" lon="-0.57898">
        <ele>23.2089844</ele>
        <time>2011-07-24T08:58:44Z</time>
      </trkpt>
      <trkpt lat="47.47568" lon="-0.57911">
        <ele>20.3249512</ele>
        <time>2011-07-24T08:58:48Z</time>
      </trkpt>
      <trkpt lat="47.47571" lon="-0.5793">
        <ele>20.3249512</ele>
        <time>2011-07-24T08:58:53Z</time>
      </trkpt>
      <trkpt lat="47.47571" lon="-0.57935">
        <ele>20.8056641</ele>
        <time>2011-07-24T08:58:54Z</time>
      </trkpt>
      <trkpt lat="47.47571" lon="-0.57946">
        <ele>22.7282715</ele>
        <time>2011-07-24T08:58:57Z</time>
      </trkpt>
      <trkpt lat="47.47573" lon="-0.57959">
        <ele>23.6895752</ele>
        <time>2011-07-24T08:59:01Z</time>
      </trkpt>
      <trkpt lat="47.4758" lon="-0.57978">
        <ele>22.7282715</ele>
        <time>2011-07-24T08:59:07Z</time>
      </trkpt>
      <trkpt lat="47.47582" lon="-0.57988">
        <ele>23.2089844</ele>
        <time>2011-07-24T08:59:10Z</time>
      </trkpt>
      <trkpt lat="47.47587" lon="-0.58004">
        <ele>24.1702881</ele>
        <time>2011-07-24T08:59:14Z</time>
      </trkpt>
      <trkpt lat="47.47588" lon="-0.58007">
        <ele>24.651001</ele>
        <time>2011-07-24T08:59:15Z</time>
      </trkpt>
      <trkpt lat="47.47589" lon="-0.58011">
        <ele>24.1702881</ele>
        <time>2011-07-24T08:59:16Z</time>
      </trkpt>
      <trkpt lat="47.47593" lon="-0.58021">
        <ele>24.1702881</ele>
        <time>2011-07-24T08:59:19Z</time>
      </trkpt>
      <trkpt lat="47.476" lon="-0.58037">
        <ele>24.1702881</ele>
        <time>2011-07-24T08:59:24Z</time>
      </trkpt>
      <trkpt lat="47.47605" lon="-0.58052">
        <ele>27.0543213</ele>
        <time>2011-07-24T08:59:28Z</time>
      </trkpt>
      <trkpt lat="47.47606" lon="-0.58056">
        <ele>27.5349121</ele>
        <time>2011-07-24T08:59:29Z</time>
      </trkpt>
      <trkpt lat="47.47609" lon="-0.58068">
        <ele>28.0155029</ele>
        <time>2011-07-24T08:59:33Z</time>
      </trkpt>
      <trkpt lat="47.47618" lon="-0.58075">
        <ele>26.5736084</ele>
        <time>2011-07-24T08:59:36Z</time>
      </trkpt>
      <trkpt lat="47.47628" lon="-0.5808">
        <ele>23.6895752</ele>
        <time>2011-07-24T08:59:40Z</time>
      </trkpt>
      <trkpt lat="47.47645" lon="-0.58076">
        <ele>22.2475586</ele>
        <time>2011-07-24T08:59:46Z</time>
      </trkpt>
      <trkpt lat="47.47656" lon="-0.5807">
        <ele>20.8056641</ele>
        <time>2011-07-24T08:59:50Z</time>
      </trkpt>
      <trkpt lat="47.47668" lon="-0.58068">
        <ele>21.286377</ele>
        <time>2011-07-24T08:59:54Z</time>
      </trkpt>
      <trkpt lat="47.47682" lon="-0.58063">
        <ele>22.7282715</ele>
        <time>2011-07-24T08:59:58Z</time>
      </trkpt>
      <trkpt lat="47.47695" lon="-0.58063">
        <ele>22.2475586</ele>
        <time>2011-07-24T09:00:02Z</time>
      </trkpt>
      <trkpt lat="47.47706" lon="-0.58062">
        <ele>23.2089844</ele>
        <time>2011-07-24T09:00:06Z</time>
      </trkpt>
      <trkpt lat="47.47717" lon="-0.58055">
        <ele>23.2089844</ele>
        <time>2011-07-24T09:00:10Z</time>
      </trkpt>
      <trkpt lat="47.47727" lon="-0.58045">
        <ele>23.6895752</ele>
        <time>2011-07-24T09:00:14Z</time>
      </trkpt>
      <trkpt lat="47.47735" lon="-0.58036">
        <ele>26.5736084</ele>
        <time>2011-07-24T09:00:18Z</time>
      </trkpt>
      <trkpt lat="47.47745" lon="-0.58023">
        <ele>29.4575195</ele>
        <time>2011-07-24T09:00:23Z</time>
      </trkpt>
      <trkpt lat="47.47754" lon="-0.58009">
        <ele>30.4188232</ele>
        <time>2011-07-24T09:00:28Z</time>
      </trkpt>
      <trkpt lat="47.47758" lon="-0.58004">
        <ele>31.380127</ele>
        <time>2011-07-24T09:00:30Z</time>
      </trkpt>
      <trkpt lat="47.47765" lon="-0.57984">
        <ele>31.380127</ele>
        <time>2011-07-24T09:00:36Z</time>
      </trkpt>
      <trkpt lat="47.47771" lon="-0.5797">
        <ele>31.8607178</ele>
        <time>2011-07-24T09:00:40Z</time>
      </trkpt>
      <trkpt lat="47.47772" lon="-0.57967">
        <ele>32.3415527</ele>
        <time>2011-07-24T09:00:41Z</time>
      </trkpt>
      <trkpt lat="47.47774" lon="-0.57957">
        <ele>31.8607178</ele>
        <time>2011-07-24T09:00:44Z</time>
      </trkpt>
      <trkpt lat="47.47782" lon="-0.57941">
        <ele>31.380127</ele>
        <time>2011-07-24T09:00:49Z</time>
      </trkpt>
      <trkpt lat="47.47796" lon="-0.57924">
        <ele>31.380127</ele>
        <time>2011-07-24T09:00:55Z</time>
      </trkpt>
      <trkpt lat="47.47807" lon="-0.57912">
        <ele>31.8607178</ele>
        <time>2011-07-24T09:01:00Z</time>
      </trkpt>
      <trkpt lat="47.4781" lon="-0.57907">
        <ele>31.380127</ele>
        <time>2011-07-24T09:01:02Z</time>
      </trkpt>
      <trkpt lat="47.47817" lon="-0.57892">
        <ele>29.9381104</ele>
        <time>2011-07-24T09:01:07Z</time>
      </trkpt>
      <trkpt lat="47.47822" lon="-0.57884">
        <ele>29.9381104</ele>
        <time>2011-07-24T09:01:11Z</time>
      </trkpt>
      <trkpt lat="47.47829" lon="-0.57877">
        <ele>31.380127</ele>
        <time>2011-07-24T09:01:15Z</time>
      </trkpt>
      <trkpt lat="47.47844" lon="-0.57868">
        <ele>32.8222656</ele>
        <time>2011-07-24T09:01:20Z</time>
      </trkpt>
      <trkpt lat="47.47851" lon="-0.5786">
        <ele>31.8607178</ele>
        <time>2011-07-24T09:01:24Z</time>
      </trkpt>
      <trkpt lat="47.47863" lon="-0.57856">
        <ele>32.8222656</ele>
        <time>2011-07-24T09:01:30Z</time>
      </trkpt>
      <trkpt lat="47.47872" lon="-0.57865">
        <ele>31.380127</ele>
        <time>2011-07-24T09:01:35Z</time>
      </trkpt>
      <trkpt lat="47.47878" lon="-0.57883">
        <ele>29.9381104</ele>
        <time>2011-07-24T09:01:40Z</time>
      </trkpt>
      <trkpt lat="47.47881" lon="-0.5789">
        <ele>29.9381104</ele>
        <time>2011-07-24T09:01:42Z</time>
      </trkpt>
      <trkpt lat="47.47888" lon="-0.57916">
        <ele>25.6123047</ele>
        <time>2011-07-24T09:01:48Z</time>
      </trkpt>
      <trkpt lat="47.47891" lon="-0.57937">
        <ele>22.7282715</ele>
        <time>2011-07-24T09:01:53Z</time>
      </trkpt>
      <trkpt lat="47.47894" lon="-0.57953">
        <ele>21.286377</ele>
        <time>2011-07-24T09:01:57Z</time>
      </trkpt>
      <trkpt lat="47.47898" lon="-0.57971">
        <ele>21.7669678</ele>
        <time>2011-07-24T09:02:01Z</time>
      </trkpt>
      <trkpt lat="47.47901" lon="-0.57984">
        <ele>22.2475586</ele>
        <time>2011-07-24T09:02:05Z</time>
      </trkpt>
      <trkpt lat="47.47906" lon="-0.57998">
        <ele>21.7669678</ele>
        <time>2011-07-24T09:02:10Z</time>
      </trkpt>
      <trkpt lat="47.47909" lon="-0.58011">
        <ele>21.286377</ele>
        <time>2011-07-24T09:02:14Z</time>
      </trkpt>
      <trkpt lat="47.47911" lon="-0.58023">
        <ele>23.2089844</ele>
        <time>2011-07-24T09:02:17Z</time>
      </trkpt>
      <trkpt lat="47.47915" lon="-0.58043">
        <ele>25.6123047</ele>
        <time>2011-07-24T09:02:22Z</time>
      </trkpt>
      <trkpt lat="47.47921" lon="-0.58058">
        <ele>27.5349121</ele>
        <time>2011-07-24T09:02:26Z</time>
      </trkpt>
      <trkpt lat="47.47924" lon="-0.58065">
        <ele>28.4962158</ele>
        <time>2011-07-24T09:02:28Z</time>
      </trkpt>
      <trkpt lat="47.47938" lon="-0.58083">
        <ele>29.4575195</ele>
        <time>2011-07-24T09:02:34Z</time>
      </trkpt>
      <trkpt lat="47.47946" lon="-0.58098">
        <ele>29.4575195</ele>
        <time>2011-07-24T09:02:38Z</time>
      </trkpt>
      <trkpt lat="47.47948" lon="-0.58106">
        <ele>29.9381104</ele>
        <time>2011-07-24T09:02:40Z</time>
      </trkpt>
      <trkpt lat="47.47949" lon="-0.58125">
        <ele>31.380127</ele>
        <time>2011-07-24T09:02:45Z</time>
      </trkpt>
      <trkpt lat="47.47951" lon="-0.58136">
        <ele>30.8995361</ele>
        <time>2011-07-24T09:02:48Z</time>
      </trkpt>
      <trkpt lat="47.47953" lon="-0.58151">
        <ele>30.4188232</ele>
        <time>2011-07-24T09:02:52Z</time>
      </trkpt>
      <trkpt lat="47.47953" lon="-0.58172">
        <ele>29.9381104</ele>
        <time>2011-07-24T09:02:57Z</time>
      </trkpt>
      <trkpt lat="47.47956" lon="-0.58185">
        <ele>29.9381104</ele>
        <time>2011-07-24T09:03:00Z</time>
      </trkpt>
      <trkpt lat="47.47961" lon="-0.58193">
        <ele>29.4575195</ele>
        <time>2011-07-24T09:03:02Z</time>
      </trkpt>
      <trkpt lat="47.47968" lon="-0.58213">
        <ele>27.5349121</ele>
        <time>2011-07-24T09:03:07Z</time>
      </trkpt>
      <trkpt lat="47.47973" lon="-0.5823">
        <ele>28.0155029</ele>
        <time>2011-07-24T09:03:12Z</time>
      </trkpt>
      <trkpt lat="47.47974" lon="-0.58233">
        <ele>28.0155029</ele>
        <time>2011-07-24T09:03:13Z</time>
      </trkpt>
      <trkpt lat="47.47976" lon="-0.58252">
        <ele>28.9769287</ele>
        <time>2011-07-24T09:03:19Z</time>
      </trkpt>
      <trkpt lat="47.47976" lon="-0.58274">
        <ele>28.4962158</ele>
        <time>2011-07-24T09:03:24Z</time>
      </trkpt>
      <trkpt lat="47.4798" lon="-0.5829">
        <ele>27.5349121</ele>
        <time>2011-07-24T09:03:28Z</time>
      </trkpt>
      <trkpt lat="47.47981" lon="-0.58312">
        <ele>25.6123047</ele>
        <time>2011-07-24T09:03:33Z</time>
      </trkpt>
      <trkpt lat="47.47985" lon="-0.58326">
        <ele>26.5736084</ele>
        <time>2011-07-24T09:03:37Z</time>
      </trkpt>
      <trkpt lat="47.4799" lon="-0.58339">
        <ele>26.5736084</ele>
        <time>2011-07-24T09:03:41Z</time>
      </trkpt>
      <trkpt lat="47.47997" lon="-0.58354">
        <ele>26.0928955</ele>
        <time>2011-07-24T09:03:46Z</time>
      </trkpt>
      <trkpt lat="47.48005" lon="-0.5837">
        <ele>24.651001</ele>
        <time>2011-07-24T09:03:51Z</time>
      </trkpt>
      <trkpt lat="47.48006" lon="-0.58374">
        <ele>24.651001</ele>
        <time>2011-07-24T09:03:52Z</time>
      </trkpt>
      <trkpt lat="47.48012" lon="-0.58396">
        <ele>23.6895752</ele>
        <time>2011-07-24T09:03:58Z</time>
      </trkpt>
      <trkpt lat="47.4802" lon="-0.58413">
        <ele>21.286377</ele>
        <time>2011-07-24T09:04:03Z</time>
      </trkpt>
      <trkpt lat="47.48031" lon="-0.58434">
        <ele>19.3637695</ele>
        <time>2011-07-24T09:04:09Z</time>
      </trkpt>
      <trkpt lat="47.48042" lon="-0.58446">
        <ele>17.4411621</ele>
        <time>2011-07-24T09:04:14Z</time>
      </trkpt>
      <trkpt lat="47.48056" lon="-0.58467">
        <ele>16.4797363</ele>
        <time>2011-07-24T09:04:21Z</time>
      </trkpt>
      <trkpt lat="47.48069" lon="-0.58481">
        <ele>15.0377197</ele>
        <time>2011-07-24T09:04:26Z</time>
      </trkpt>
      <trkpt lat="47.48072" lon="-0.58484">
        <ele>15.0377197</ele>
        <time>2011-07-24T09:04:27Z</time>
      </trkpt>
      <trkpt lat="47.48082" lon="-0.58494">
        <ele>13.5958252</ele>
        <time>2011-07-24T09:04:32Z</time>
      </trkpt>
      <trkpt lat="47.48095" lon="-0.58506">
        <ele>13.1151123</ele>
        <time>2011-07-24T09:04:37Z</time>
      </trkpt>
      <trkpt lat="47.48104" lon="-0.58518">
        <ele>14.076416</ele>
        <time>2011-07-24T09:04:41Z</time>
      </trkpt>
      <trkpt lat="47.48119" lon="-0.58533">
        <ele>15.0377197</ele>
        <time>2011-07-24T09:04:47Z</time>
      </trkpt>
      <trkpt lat="47.48127" lon="-0.58541">
        <ele>15.0377197</ele>
        <time>2011-07-24T09:04:51Z</time>
      </trkpt>
      <trkpt lat="47.48138" lon="-0.5855">
        <ele>15.5184326</ele>
        <time>2011-07-24T09:04:57Z</time>
      </trkpt>
      <trkpt lat="47.48143" lon="-0.58553">
        <ele>16.4797363</ele>
        <time>2011-07-24T09:04:59Z</time>
      </trkpt>
      <trkpt lat="47.48159" lon="-0.58568">
        <ele>16.4797363</ele>
        <time>2011-07-24T09:05:05Z</time>
      </trkpt>
      <trkpt lat="47.48172" lon="-0.58583">
        <ele>17.4411621</ele>
        <time>2011-07-24T09:05:10Z</time>
      </trkpt>
      <trkpt lat="47.48183" lon="-0.5859">
        <ele>19.3637695</ele>
        <time>2011-07-24T09:05:14Z</time>
      </trkpt>
      <trkpt lat="47.48187" lon="-0.58591">
        <ele>19.8443604</ele>
        <time>2011-07-24T09:05:15Z</time>
      </trkpt>
      <trkpt lat="47.48197" lon="-0.586">
        <ele>21.286377</ele>
        <time>2011-07-24T09:05:19Z</time>
      </trkpt>
      <trkpt lat="47.48202" lon="-0.58603">
        <ele>21.7669678</ele>
        <time>2011-07-24T09:05:21Z</time>
      </trkpt>
      <trkpt lat="47.48216" lon="-0.58619">
        <ele>23.2089844</ele>
        <time>2011-07-24T09:05:27Z</time>
      </trkpt>
      <trkpt lat="47.48223" lon="-0.58632">
        <ele>24.651001</ele>
        <time>2011-07-24T09:05:31Z</time>
      </trkpt>
      <trkpt lat="47.48233" lon="-0.58639">
        <ele>23.6895752</ele>
        <time>2011-07-24T09:05:35Z</time>
      </trkpt>
      <trkpt lat="47.4824" lon="-0.58645">
        <ele>24.1702881</ele>
        <time>2011-07-24T09:05:38Z</time>
      </trkpt>
      <trkpt lat="47.48254" lon="-0.58661">
        <ele>23.6895752</ele>
        <time>2011-07-24T09:05:44Z</time>
      </trkpt>
      <trkpt lat="47.48256" lon="-0.58675">
        <ele>24.651001</ele>
        <time>2011-07-24T09:05:48Z</time>
      </trkpt>
      <trkpt lat="47.48259" lon="-0.58694">
        <ele>28.9769287</ele>
        <time>2011-07-24T09:05:53Z</time>
      </trkpt>
      <trkpt lat="47.48259" lon="-0.58705">
        <ele>32.8222656</ele>
        <time>2011-07-24T09:05:56Z</time>
      </trkpt>
      <trkpt lat="47.48262" lon="-0.5873">
        <ele>36.1867676</ele>
        <time>2011-07-24T09:06:02Z</time>
      </trkpt>
      <trkpt lat="47.48268" lon="-0.58748">
        <ele>36.6674805</ele>
        <time>2011-07-24T09:06:07Z</time>
      </trkpt>
      <trkpt lat="47.48266" lon="-0.58767">
        <ele>35.2254639</ele>
        <time>2011-07-24T09:06:12Z</time>
      </trkpt>
      <trkpt lat="47.48265" lon="-0.58771">
        <ele>34.2641602</ele>
        <time>2011-07-24T09:06:13Z</time>
      </trkpt>
      <trkpt lat="47.48266" lon="-0.58792">
        <ele>26.0928955</ele>
        <time>2011-07-24T09:06:19Z</time>
      </trkpt>
      <trkpt lat="47.48272" lon="-0.58806">
        <ele>23.6895752</ele>
        <time>2011-07-24T09:06:23Z</time>
      </trkpt>
      <trkpt lat="47.48274" lon="-0.58818">
        <ele>22.7282715</ele>
        <time>2011-07-24T09:06:26Z</time>
      </trkpt>
      <trkpt lat="47.48275" lon="-0.58831">
        <ele>22.7282715</ele>
        <time>2011-07-24T09:06:29Z</time>
      </trkpt>
      <trkpt lat="47.48279" lon="-0.58857">
        <ele>24.651001</ele>
        <time>2011-07-24T09:06:35Z</time>
      </trkpt>
      <trkpt lat="47.48279" lon="-0.58875">
        <ele>25.6123047</ele>
        <time>2011-07-24T09:06:39Z</time>
      </trkpt>
      <trkpt lat="47.48281" lon="-0.5889">
        <ele>26.0928955</ele>
        <time>2011-07-24T09:06:43Z</time>
      </trkpt>
      <trkpt lat="47.48282" lon="-0.58905">
        <ele>24.651001</ele>
        <time>2011-07-24T09:06:47Z</time>
      </trkpt>
      <trkpt lat="47.48282" lon="-0.58909">
        <ele>24.651001</ele>
        <time>2011-07-24T09:06:48Z</time>
      </trkpt>
      <trkpt lat="47.48286" lon="-0.58932">
        <ele>23.6895752</ele>
        <time>2011-07-24T09:06:55Z</time>
      </trkpt>
      <trkpt lat="47.48287" lon="-0.5894">
        <ele>22.7282715</ele>
        <time>2011-07-24T09:06:57Z</time>
      </trkpt>
      <trkpt lat="47.48288" lon="-0.58957">
        <ele>24.1702881</ele>
        <time>2011-07-24T09:07:01Z</time>
      </trkpt>
      <trkpt lat="47.48289" lon="-0.58971">
        <ele>24.651001</ele>
        <time>2011-07-24T09:07:04Z</time>
      </trkpt>
      <trkpt lat="47.48292" lon="-0.58988">
        <ele>22.7282715</ele>
        <time>2011-07-24T09:07:09Z</time>
      </trkpt>
      <trkpt lat="47.48292" lon="-0.59005">
        <ele>22.2475586</ele>
        <time>2011-07-24T09:07:13Z</time>
      </trkpt>
      <trkpt lat="47.48292" lon="-0.59022">
        <ele>21.7669678</ele>
        <time>2011-07-24T09:07:17Z</time>
      </trkpt>
      <trkpt lat="47.48293" lon="-0.5904">
        <ele>20.8056641</ele>
        <time>2011-07-24T09:07:22Z</time>
      </trkpt>
      <trkpt lat="47.48292" lon="-0.59054">
        <ele>22.7282715</ele>
        <time>2011-07-24T09:07:26Z</time>
      </trkpt>
      <trkpt lat="47.48296" lon="-0.59073">
        <ele>23.6895752</ele>
        <time>2011-07-24T09:07:31Z</time>
      </trkpt>
      <trkpt lat="47.48301" lon="-0.59087">
        <ele>22.2475586</ele>
        <time>2011-07-24T09:07:35Z</time>
      </trkpt>
      <trkpt lat="47.48303" lon="-0.59103">
        <ele>21.286377</ele>
        <time>2011-07-24T09:07:39Z</time>
      </trkpt>
      <trkpt lat="47.48303" lon="-0.59114">
        <ele>20.8056641</ele>
        <time>2011-07-24T09:07:41Z</time>
      </trkpt>
      <trkpt lat="47.48304" lon="-0.59127">
        <ele>22.7282715</ele>
        <time>2011-07-24T09:07:44Z</time>
      </trkpt>
      <trkpt lat="47.48306" lon="-0.59144">
        <ele>24.1702881</ele>
        <time>2011-07-24T09:07:48Z</time>
      </trkpt>
      <trkpt lat="47.48306" lon="-0.59148">
        <ele>24.651001</ele>
        <time>2011-07-24T09:07:49Z</time>
      </trkpt>
      <trkpt lat="47.48305" lon="-0.59171">
        <ele>26.5736084</ele>
        <time>2011-07-24T09:07:55Z</time>
      </trkpt>
      <trkpt lat="47.48306" lon="-0.59186">
        <ele>25.6123047</ele>
        <time>2011-07-24T09:07:58Z</time>
      </trkpt>
      <trkpt lat="47.48306" lon="-0.59197">
        <ele>25.6123047</ele>
        <time>2011-07-24T09:08:01Z</time>
      </trkpt>
      <trkpt lat="47.48307" lon="-0.59201">
        <ele>25.6123047</ele>
        <time>2011-07-24T09:08:02Z</time>
      </trkpt>
      <trkpt lat="47.48311" lon="-0.59221">
        <ele>25.6123047</ele>
        <time>2011-07-24T09:08:07Z</time>
      </trkpt>
      <trkpt lat="47.48314" lon="-0.59237">
        <ele>25.1317139</ele>
        <time>2011-07-24T09:08:11Z</time>
      </trkpt>
      <trkpt lat="47.48316" lon="-0.59245">
        <ele>25.6123047</ele>
        <time>2011-07-24T09:08:13Z</time>
      </trkpt>
      <trkpt lat="47.48321" lon="-0.59262">
        <ele>24.651001</ele>
        <time>2011-07-24T09:08:18Z</time>
      </trkpt>
      <trkpt lat="47.48325" lon="-0.59276">
        <ele>24.651001</ele>
        <time>2011-07-24T09:08:22Z</time>
      </trkpt>
      <trkpt lat="47.48325" lon="-0.59288">
        <ele>23.2089844</ele>
        <time>2011-07-24T09:08:26Z</time>
      </trkpt>
      <trkpt lat="47.48324" lon="-0.59311">
        <ele>22.2475586</ele>
        <time>2011-07-24T09:08:32Z</time>
      </trkpt>
      <trkpt lat="47.48323" lon="-0.59334">
        <ele>24.1702881</ele>
        <time>2011-07-24T09:08:38Z</time>
      </trkpt>
      <trkpt lat="47.48322" lon="-0.59359">
        <ele>25.1317139</ele>
        <time>2011-07-24T09:08:44Z</time>
      </trkpt>
      <trkpt lat="47.48323" lon="-0.59379">
        <ele>26.5736084</ele>
        <time>2011-07-24T09:08:49Z</time>
      </trkpt>
      <trkpt lat="47.48325" lon="-0.59399">
        <ele>28.4962158</ele>
        <time>2011-07-24T09:08:54Z</time>
      </trkpt>
      <trkpt lat="47.48324" lon="-0.59416">
        <ele>28.9769287</ele>
        <time>2011-07-24T09:08:58Z</time>
      </trkpt>
      <trkpt lat="47.48321" lon="-0.59432">
        <ele>30.8995361</ele>
        <time>2011-07-24T09:09:02Z</time>
      </trkpt>
      <trkpt lat="47.4832" lon="-0.59452">
        <ele>32.3415527</ele>
        <time>2011-07-24T09:09:07Z</time>
      </trkpt>
      <trkpt lat="47.48316" lon="-0.59475">
        <ele>32.8222656</ele>
        <time>2011-07-24T09:09:12Z</time>
      </trkpt>
      <trkpt lat="47.48318" lon="-0.59498">
        <ele>30.8995361</ele>
        <time>2011-07-24T09:09:17Z</time>
      </trkpt>
      <trkpt lat="47.4832" lon="-0.5951">
        <ele>28.9769287</ele>
        <time>2011-07-24T09:09:20Z</time>
      </trkpt>
      <trkpt lat="47.48325" lon="-0.59523">
        <ele>25.1317139</ele>
        <time>2011-07-24T09:09:24Z</time>
      </trkpt>
      <trkpt lat="47.48327" lon="-0.5953">
        <ele>24.651001</ele>
        <time>2011-07-24T09:09:26Z</time>
      </trkpt>
      <trkpt lat="47.48333" lon="-0.59553">
        <ele>23.6895752</ele>
        <time>2011-07-24T09:09:32Z</time>
      </trkpt>
      <trkpt lat="47.48338" lon="-0.59579">
        <ele>20.3249512</ele>
        <time>2011-07-24T09:09:38Z</time>
      </trkpt>
      <trkpt lat="47.48341" lon="-0.59594">
        <ele>21.286377</ele>
        <time>2011-07-24T09:09:42Z</time>
      </trkpt>
      <trkpt lat="47.48341" lon="-0.59613">
        <ele>21.286377</ele>
        <time>2011-07-24T09:09:47Z</time>
      </trkpt>
      <trkpt lat="47.48341" lon="-0.59629">
        <ele>21.7669678</ele>
        <time>2011-07-24T09:09:51Z</time>
      </trkpt>
      <trkpt lat="47.48343" lon="-0.59648">
        <ele>21.7669678</ele>
        <time>2011-07-24T09:09:56Z</time>
      </trkpt>
      <trkpt lat="47.48345" lon="-0.5967">
        <ele>21.7669678</ele>
        <time>2011-07-24T09:10:01Z</time>
      </trkpt>
      <trkpt lat="47.48346" lon="-0.59686">
        <ele>23.6895752</ele>
        <time>2011-07-24T09:10:05Z</time>
      </trkpt>
      <trkpt lat="47.48346" lon="-0.59705">
        <ele>24.1702881</ele>
        <time>2011-07-24T09:10:10Z</time>
      </trkpt>
      <trkpt lat="47.48347" lon="-0.59728">
        <ele>25.1317139</ele>
        <time>2011-07-24T09:10:15Z</time>
      </trkpt>
      <trkpt lat="47.4835" lon="-0.59749">
        <ele>23.6895752</ele>
        <time>2011-07-24T09:10:20Z</time>
      </trkpt>
      <trkpt lat="47.4835" lon="-0.59753">
        <ele>24.651001</ele>
        <time>2011-07-24T09:10:21Z</time>
      </trkpt>
      <trkpt lat="47.48347" lon="-0.59775">
        <ele>27.0543213</ele>
        <time>2011-07-24T09:10:27Z</time>
      </trkpt>
      <trkpt lat="47.48346" lon="-0.59794">
        <ele>26.5736084</ele>
        <time>2011-07-24T09:10:32Z</time>
      </trkpt>
      <trkpt lat="47.48345" lon="-0.59814">
        <ele>27.0543213</ele>
        <time>2011-07-24T09:10:37Z</time>
      </trkpt>
      <trkpt lat="47.48344" lon="-0.59836">
        <ele>28.0155029</ele>
        <time>2011-07-24T09:10:42Z</time>
      </trkpt>
      <trkpt lat="47.48344" lon="-0.59844">
        <ele>28.4962158</ele>
        <time>2011-07-24T09:10:44Z</time>
      </trkpt>
      <trkpt lat="47.48345" lon="-0.59865">
        <ele>28.4962158</ele>
        <time>2011-07-24T09:10:49Z</time>
      </trkpt>
      <trkpt lat="47.48346" lon="-0.59889">
        <ele>28.9769287</ele>
        <time>2011-07-24T09:10:55Z</time>
      </trkpt>
      <trkpt lat="47.48347" lon="-0.5991">
        <ele>28.0155029</ele>
        <time>2011-07-24T09:11:00Z</time>
      </trkpt>
      <trkpt lat="47.48353" lon="-0.5993">
        <ele>26.0928955</ele>
        <time>2011-07-24T09:11:06Z</time>
      </trkpt>
      <trkpt lat="47.48361" lon="-0.59941">
        <ele>22.7282715</ele>
        <time>2011-07-24T09:11:10Z</time>
      </trkpt>
      <trkpt lat="47.48365" lon="-0.59946">
        <ele>21.7669678</ele>
        <time>2011-07-24T09:11:12Z</time>
      </trkpt>
      <trkpt lat="47.48378" lon="-0.59958">
        <ele>20.8056641</ele>
        <time>2011-07-24T09:11:18Z</time>
      </trkpt>
      <trkpt lat="47.4838" lon="-0.59959">
        <ele>20.3249512</ele>
        <time>2011-07-24T09:11:19Z</time>
      </trkpt>
      <trkpt lat="47.48395" lon="-0.59972">
        <ele>18.8830566</ele>
        <time>2011-07-24T09:11:25Z</time>
      </trkpt>
      <trkpt lat="47.48403" lon="-0.59976">
        <ele>18.8830566</ele>
        <time>2011-07-24T09:11:29Z</time>
      </trkpt>
      <trkpt lat="47.48413" lon="-0.59978">
        <ele>18.8830566</ele>
        <time>2011-07-24T09:11:34Z</time>
      </trkpt>
      <trkpt lat="47.48424" lon="-0.59974">
        <ele>19.3637695</ele>
        <time>2011-07-24T09:11:38Z</time>
      </trkpt>
      <trkpt lat="47.48439" lon="-0.59968">
        <ele>20.3249512</ele>
        <time>2011-07-24T09:11:43Z</time>
      </trkpt>
      <trkpt lat="47.48445" lon="-0.59968">
        <ele>20.3249512</ele>
        <time>2011-07-24T09:11:46Z</time>
      </trkpt>
      <trkpt lat="47.48463" lon="-0.59966">
        <ele>20.8056641</ele>
        <time>2011-07-24T09:11:52Z</time>
      </trkpt>
      <trkpt lat="47.48477" lon="-0.59965">
        <ele>22.7282715</ele>
        <time>2011-07-24T09:11:57Z</time>
      </trkpt>
      <trkpt lat="47.48487" lon="-0.59962">
        <ele>24.1702881</ele>
        <time>2011-07-24T09:12:01Z</time>
      </trkpt>
      <trkpt lat="47.48497" lon="-0.59961">
        <ele>25.6123047</ele>
        <time>2011-07-24T09:12:05Z</time>
      </trkpt>
      <trkpt lat="47.48508" lon="-0.59961">
        <ele>28.4962158</ele>
        <time>2011-07-24T09:12:09Z</time>
      </trkpt>
      <trkpt lat="47.48513" lon="-0.59959">
        <ele>29.9381104</ele>
        <time>2011-07-24T09:12:12Z</time>
      </trkpt>
      <trkpt lat="47.48521" lon="-0.59959">
        <ele>32.3415527</ele>
        <time>2011-07-24T09:12:18Z</time>
      </trkpt>
      <trkpt lat="47.48527" lon="-0.59957">
        <ele>34.2641602</ele>
        <time>2011-07-24T09:12:22Z</time>
      </trkpt>
      <trkpt lat="47.48535" lon="-0.59954">
        <ele>34.2641602</ele>
        <time>2011-07-24T09:12:26Z</time>
      </trkpt>
      <trkpt lat="47.48536" lon="-0.59953">
        <ele>34.2641602</ele>
        <time>2011-07-24T09:12:27Z</time>
      </trkpt>
      <trkpt lat="47.48542" lon="-0.59954">
        <ele>33.7834473</ele>
        <time>2011-07-24T09:12:30Z</time>
      </trkpt>
      <trkpt lat="47.48549" lon="-0.59956">
        <ele>32.3415527</ele>
        <time>2011-07-24T09:12:34Z</time>
      </trkpt>
      <trkpt lat="47.48559" lon="-0.59954">
        <ele>33.3028564</ele>
        <time>2011-07-24T09:12:38Z</time>
      </trkpt>
      <trkpt lat="47.48568" lon="-0.59948">
        <ele>35.2254639</ele>
        <time>2011-07-24T09:12:42Z</time>
      </trkpt>
      <trkpt lat="47.48583" lon="-0.59949">
        <ele>36.1867676</ele>
        <time>2011-07-24T09:12:48Z</time>
      </trkpt>
      <trkpt lat="47.48587" lon="-0.59952">
        <ele>36.1867676</ele>
        <time>2011-07-24T09:12:50Z</time>
      </trkpt>
      <trkpt lat="47.48593" lon="-0.5996">
        <ele>34.744873</ele>
        <time>2011-07-24T09:12:53Z</time>
      </trkpt>
      <trkpt lat="47.48599" lon="-0.59955">
        <ele>33.7834473</ele>
        <time>2011-07-24T09:12:57Z</time>
      </trkpt>
      <trkpt lat="47.48607" lon="-0.59941">
        <ele>29.9381104</ele>
        <time>2011-07-24T09:13:02Z</time>
      </trkpt>
      <trkpt lat="47.48614" lon="-0.59945">
        <ele>28.0155029</ele>
        <time>2011-07-24T09:13:07Z</time>
      </trkpt>
      <trkpt lat="47.48619" lon="-0.5995">
        <ele>26.0928955</ele>
        <time>2011-07-24T09:13:09Z</time>
      </trkpt>
      <trkpt lat="47.48632" lon="-0.59977">
        <ele>27.5349121</ele>
        <time>2011-07-24T09:13:16Z</time>
      </trkpt>
      <trkpt lat="47.48639" lon="-0.59984">
        <ele>26.5736084</ele>
        <time>2011-07-24T09:13:19Z</time>
      </trkpt>
      <trkpt lat="47.48644" lon="-0.59999">
        <ele>27.0543213</ele>
        <time>2011-07-24T09:13:24Z</time>
      </trkpt>
      <trkpt lat="47.48652" lon="-0.60011">
        <ele>24.1702881</ele>
        <time>2011-07-24T09:13:29Z</time>
      </trkpt>
      <trkpt lat="47.48659" lon="-0.60023">
        <ele>22.2475586</ele>
        <time>2011-07-24T09:13:34Z</time>
      </trkpt>
      <trkpt lat="47.48664" lon="-0.6003">
        <ele>20.8056641</ele>
        <time>2011-07-24T09:13:37Z</time>
      </trkpt>
      <trkpt lat="47.48668" lon="-0.60036">
        <ele>19.3637695</ele>
        <time>2011-07-24T09:13:39Z</time>
      </trkpt>
      <trkpt lat="47.48673" lon="-0.6005">
        <ele>19.3637695</ele>
        <time>2011-07-24T09:13:43Z</time>
      </trkpt>
      <trkpt lat="47.48671" lon="-0.60074">
        <ele>26.5736084</ele>
        <time>2011-07-24T09:13:48Z</time>
      </trkpt>
      <trkpt lat="47.4867" lon="-0.60086">
        <ele>30.4188232</ele>
        <time>2011-07-24T09:13:51Z</time>
      </trkpt>
      <trkpt lat="47.48669" lon="-0.60109">
        <ele>35.2254639</ele>
        <time>2011-07-24T09:13:57Z</time>
      </trkpt>
      <trkpt lat="47.48669" lon="-0.60117">
        <ele>37.1480713</ele>
        <time>2011-07-24T09:13:59Z</time>
      </trkpt>
      <trkpt lat="47.4867" lon="-0.60135">
        <ele>38.109375</ele>
        <time>2011-07-24T09:14:04Z</time>
      </trkpt>
      <trkpt lat="47.48669" lon="-0.60159">
        <ele>40.0321045</ele>
        <time>2011-07-24T09:14:10Z</time>
      </trkpt>
      <trkpt lat="47.48668" lon="-0.60178">
        <ele>40.9934082</ele>
        <time>2011-07-24T09:14:15Z</time>
      </trkpt>
      <trkpt lat="47.48671" lon="-0.60199">
        <ele>37.1480713</ele>
        <time>2011-07-24T09:14:21Z</time>
      </trkpt>
      <trkpt lat="47.48671" lon="-0.60203">
        <ele>36.1867676</ele>
        <time>2011-07-24T09:14:22Z</time>
      </trkpt>
      <trkpt lat="47.48675" lon="-0.60221">
        <ele>33.7834473</ele>
        <time>2011-07-24T09:14:27Z</time>
      </trkpt>
      <trkpt lat="47.48677" lon="-0.60231">
        <ele>33.7834473</ele>
        <time>2011-07-24T09:14:30Z</time>
      </trkpt>
      <trkpt lat="47.48679" lon="-0.60238">
        <ele>33.7834473</ele>
        <time>2011-07-24T09:14:32Z</time>
      </trkpt>
      <trkpt lat="47.4868" lon="-0.60256">
        <ele>33.3028564</ele>
        <time>2011-07-24T09:14:37Z</time>
      </trkpt>
      <trkpt lat="47.48679" lon="-0.60268">
        <ele>32.8222656</ele>
        <time>2011-07-24T09:14:40Z</time>
      </trkpt>
      <trkpt lat="47.48678" lon="-0.6029">
        <ele>30.8995361</ele>
        <time>2011-07-24T09:14:46Z</time>
      </trkpt>
      <trkpt lat="47.4868" lon="-0.6031">
        <ele>30.8995361</ele>
        <time>2011-07-24T09:14:51Z</time>
      </trkpt>
      <trkpt lat="47.48682" lon="-0.60325">
        <ele>28.9769287</ele>
        <time>2011-07-24T09:14:56Z</time>
      </trkpt>
      <trkpt lat="47.48681" lon="-0.60341">
        <ele>26.5736084</ele>
        <time>2011-07-24T09:15:01Z</time>
      </trkpt>
      <trkpt lat="47.4868" lon="-0.60345">
        <ele>26.5736084</ele>
        <time>2011-07-24T09:15:02Z</time>
      </trkpt>
      <trkpt lat="47.48678" lon="-0.60367">
        <ele>27.5349121</ele>
        <time>2011-07-24T09:15:07Z</time>
      </trkpt>
      <trkpt lat="47.48679" lon="-0.60386">
        <ele>28.9769287</ele>
        <time>2011-07-24T09:15:12Z</time>
      </trkpt>
      <trkpt lat="47.48679" lon="-0.60394">
        <ele>28.4962158</ele>
        <time>2011-07-24T09:15:14Z</time>
      </trkpt>
      <trkpt lat="47.48678" lon="-0.60417">
        <ele>28.4962158</ele>
        <time>2011-07-24T09:15:20Z</time>
      </trkpt>
      <trkpt lat="47.48681" lon="-0.60439">
        <ele>28.0155029</ele>
        <time>2011-07-24T09:15:25Z</time>
      </trkpt>
      <trkpt lat="47.48686" lon="-0.60453">
        <ele>26.0928955</ele>
        <time>2011-07-24T09:15:29Z</time>
      </trkpt>
      <trkpt lat="47.48693" lon="-0.60472">
        <ele>24.651001</ele>
        <time>2011-07-24T09:15:34Z</time>
      </trkpt>
      <trkpt lat="47.48696" lon="-0.60478">
        <ele>24.651001</ele>
        <time>2011-07-24T09:15:36Z</time>
      </trkpt>
      <trkpt lat="47.48704" lon="-0.60491">
        <ele>22.7282715</ele>
        <time>2011-07-24T09:15:41Z</time>
      </trkpt>
      <trkpt lat="47.4871" lon="-0.60508">
        <ele>23.6895752</ele>
        <time>2011-07-24T09:15:46Z</time>
      </trkpt>
      <trkpt lat="47.48715" lon="-0.60523">
        <ele>23.6895752</ele>
        <time>2011-07-24T09:15:51Z</time>
      </trkpt>
      <trkpt lat="47.48719" lon="-0.60541">
        <ele>21.7669678</ele>
        <time>2011-07-24T09:15:56Z</time>
      </trkpt>
      <trkpt lat="47.48725" lon="-0.60553">
        <ele>21.286377</ele>
        <time>2011-07-24T09:16:00Z</time>
      </trkpt>
      <trkpt lat="47.48735" lon="-0.60564">
        <ele>20.8056641</ele>
        <time>2011-07-24T09:16:04Z</time>
      </trkpt>
      <trkpt lat="47.48741" lon="-0.60582">
        <ele>21.7669678</ele>
        <time>2011-07-24T09:16:09Z</time>
      </trkpt>
      <trkpt lat="47.48743" lon="-0.60591">
        <ele>22.7282715</ele>
        <time>2011-07-24T09:16:11Z</time>
      </trkpt>
      <trkpt lat="47.48749" lon="-0.60601">
        <ele>22.2475586</ele>
        <time>2011-07-24T09:16:15Z</time>
      </trkpt>
      <trkpt lat="47.48755" lon="-0.60611">
        <ele>23.6895752</ele>
        <time>2011-07-24T09:16:19Z</time>
      </trkpt>
      <trkpt lat="47.48762" lon="-0.60634">
        <ele>21.7669678</ele>
        <time>2011-07-24T09:16:25Z</time>
      </trkpt>
      <trkpt lat="47.48769" lon="-0.60647">
        <ele>24.1702881</ele>
        <time>2011-07-24T09:16:29Z</time>
      </trkpt>
      <trkpt lat="47.48779" lon="-0.60657">
        <ele>24.651001</ele>
        <time>2011-07-24T09:16:33Z</time>
      </trkpt>
      <trkpt lat="47.48791" lon="-0.60677">
        <ele>23.6895752</ele>
        <time>2011-07-24T09:16:39Z</time>
      </trkpt>
      <trkpt lat="47.48797" lon="-0.60688">
        <ele>22.2475586</ele>
        <time>2011-07-24T09:16:42Z</time>
      </trkpt>
      <trkpt lat="47.48814" lon="-0.60693">
        <ele>17.9217529</ele>
        <time>2011-07-24T09:16:49Z</time>
      </trkpt>
      <trkpt lat="47.4882" lon="-0.60694">
        <ele>17.4411621</ele>
        <time>2011-07-24T09:16:51Z</time>
      </trkpt>
      <trkpt lat="47.48829" lon="-0.60696">
        <ele>15.9990234</ele>
        <time>2011-07-24T09:16:55Z</time>
      </trkpt>
      <trkpt lat="47.48844" lon="-0.6069">
        <ele>14.5570068</ele>
        <time>2011-07-24T09:17:00Z</time>
      </trkpt>
      <trkpt lat="47.48856" lon="-0.60673">
        <ele>15.0377197</ele>
        <time>2011-07-24T09:17:06Z</time>
      </trkpt>
      <trkpt lat="47.48865" lon="-0.60659">
        <ele>15.5184326</ele>
        <time>2011-07-24T09:17:10Z</time>
      </trkpt>
      <trkpt lat="47.48875" lon="-0.6064">
        <ele>19.8443604</ele>
        <time>2011-07-24T09:17:16Z</time>
      </trkpt>
      <trkpt lat="47.48884" lon="-0.60625">
        <ele>23.2089844</ele>
        <time>2011-07-24T09:17:21Z</time>
      </trkpt>
      <trkpt lat="47.48889" lon="-0.60621">
        <ele>24.651001</ele>
        <time>2011-07-24T09:17:23Z</time>
      </trkpt>
      <trkpt lat="47.48897" lon="-0.60611">
        <ele>25.1317139</ele>
        <time>2011-07-24T09:17:27Z</time>
      </trkpt>
      <trkpt lat="47.48908" lon="-0.60602">
        <ele>27.5349121</ele>
        <time>2011-07-24T09:17:32Z</time>
      </trkpt>
      <trkpt lat="47.48913" lon="-0.60611">
        <ele>29.4575195</ele>
        <time>2011-07-24T09:17:37Z</time>
      </trkpt>
      <trkpt lat="47.48914" lon="-0.60627">
        <ele>32.3415527</ele>
        <time>2011-07-24T09:17:41Z</time>
      </trkpt>
      <trkpt lat="47.48917" lon="-0.60647">
        <ele>33.3028564</ele>
        <time>2011-07-24T09:17:46Z</time>
      </trkpt>
      <trkpt lat="47.48919" lon="-0.60655">
        <ele>33.7834473</ele>
        <time>2011-07-24T09:17:48Z</time>
      </trkpt>
      <trkpt lat="47.48923" lon="-0.60665">
        <ele>33.3028564</ele>
        <time>2011-07-24T09:17:51Z</time>
      </trkpt>
      <trkpt lat="47.48927" lon="-0.60687">
        <ele>31.380127</ele>
        <time>2011-07-24T09:17:57Z</time>
      </trkpt>
      <trkpt lat="47.48928" lon="-0.60689">
        <ele>30.4188232</ele>
        <time>2011-07-24T09:17:58Z</time>
      </trkpt>
      <trkpt lat="47.48924" lon="-0.60707">
        <ele>27.0543213</ele>
        <time>2011-07-24T09:18:04Z</time>
      </trkpt>
      <trkpt lat="47.48907" lon="-0.60719">
        <ele>26.0928955</ele>
        <time>2011-07-24T09:18:11Z</time>
      </trkpt>
      <trkpt lat="47.48895" lon="-0.60724">
        <ele>24.1702881</ele>
        <time>2011-07-24T09:18:15Z</time>
      </trkpt>
      <trkpt lat="47.48883" lon="-0.6073">
        <ele>23.6895752</ele>
        <time>2011-07-24T09:18:20Z</time>
      </trkpt>
      <trkpt lat="47.48872" lon="-0.60741">
        <ele>24.651001</ele>
        <time>2011-07-24T09:18:25Z</time>
      </trkpt>
      <trkpt lat="47.48864" lon="-0.60753">
        <ele>24.651001</ele>
        <time>2011-07-24T09:18:29Z</time>
      </trkpt>
      <trkpt lat="47.48854" lon="-0.60766">
        <ele>25.1317139</ele>
        <time>2011-07-24T09:18:34Z</time>
      </trkpt>
      <trkpt lat="47.48843" lon="-0.6078">
        <ele>25.1317139</ele>
        <time>2011-07-24T09:18:39Z</time>
      </trkpt>
      <trkpt lat="47.48834" lon="-0.60797">
        <ele>28.9769287</ele>
        <time>2011-07-24T09:18:44Z</time>
      </trkpt>
      <trkpt lat="47.48827" lon="-0.60813">
        <ele>29.4575195</ele>
        <time>2011-07-24T09:18:49Z</time>
      </trkpt>
      <trkpt lat="47.48815" lon="-0.60823">
        <ele>30.4188232</ele>
        <time>2011-07-24T09:18:54Z</time>
      </trkpt>
      <trkpt lat="47.48803" lon="-0.60827">
        <ele>30.4188232</ele>
        <time>2011-07-24T09:18:58Z</time>
      </trkpt>
      <trkpt lat="47.48791" lon="-0.60828">
        <ele>29.4575195</ele>
        <time>2011-07-24T09:19:02Z</time>
      </trkpt>
      <trkpt lat="47.48783" lon="-0.60824">
        <ele>28.4962158</ele>
        <time>2011-07-24T09:19:06Z</time>
      </trkpt>
      <trkpt lat="47.48774" lon="-0.60814">
        <ele>27.5349121</ele>
        <time>2011-07-24T09:19:11Z</time>
      </trkpt>
      <trkpt lat="47.48767" lon="-0.60805">
        <ele>26.5736084</ele>
        <time>2011-07-24T09:19:15Z</time>
      </trkpt>
      <trkpt lat="47.48753" lon="-0.608">
        <ele>23.6895752</ele>
        <time>2011-07-24T09:19:20Z</time>
      </trkpt>
      <trkpt lat="47.48744" lon="-0.60792">
        <ele>23.6895752</ele>
        <time>2011-07-24T09:19:25Z</time>
      </trkpt>
      <trkpt lat="47.4874" lon="-0.60788">
        <ele>22.7282715</ele>
        <time>2011-07-24T09:19:27Z</time>
      </trkpt>
      <trkpt lat="47.48731" lon="-0.60779">
        <ele>19.3637695</ele>
        <time>2011-07-24T09:19:32Z</time>
      </trkpt>
      <trkpt lat="47.48727" lon="-0.60775">
        <ele>19.3637695</ele>
        <time>2011-07-24T09:19:34Z</time>
      </trkpt>
      <trkpt lat="47.48716" lon="-0.60758">
        <ele>21.7669678</ele>
        <time>2011-07-24T09:19:41Z</time>
      </trkpt>
      <trkpt lat="47.48712" lon="-0.60744">
        <ele>22.2475586</ele>
        <time>2011-07-24T09:19:45Z</time>
      </trkpt>
      <trkpt lat="47.48707" lon="-0.60724">
        <ele>29.4575195</ele>
        <time>2011-07-24T09:19:50Z</time>
      </trkpt>
      <trkpt lat="47.487" lon="-0.60704">
        <ele>31.380127</ele>
        <time>2011-07-24T09:19:55Z</time>
      </trkpt>
      <trkpt lat="47.48691" lon="-0.60686">
        <ele>31.380127</ele>
        <time>2011-07-24T09:20:00Z</time>
      </trkpt>
      <trkpt lat="47.48686" lon="-0.60672">
        <ele>30.8995361</ele>
        <time>2011-07-24T09:20:04Z</time>
      </trkpt>
      <trkpt lat="47.48684" lon="-0.60665">
        <ele>32.8222656</ele>
        <time>2011-07-24T09:20:06Z</time>
      </trkpt>
      <trkpt lat="47.48679" lon="-0.60649">
        <ele>32.8222656</ele>
        <time>2011-07-24T09:20:11Z</time>
      </trkpt>
      <trkpt lat="47.48671" lon="-0.60635">
        <ele>29.9381104</ele>
        <time>2011-07-24T09:20:16Z</time>
      </trkpt>
      <trkpt lat="47.48665" lon="-0.60621">
        <ele>28.9769287</ele>
        <time>2011-07-24T09:20:20Z</time>
      </trkpt>
      <trkpt lat="47.48656" lon="-0.60603">
        <ele>26.5736084</ele>
        <time>2011-07-24T09:20:26Z</time>
      </trkpt>
      <trkpt lat="47.4865" lon="-0.60588">
        <ele>25.1317139</ele>
        <time>2011-07-24T09:20:30Z</time>
      </trkpt>
      <trkpt lat="47.48648" lon="-0.60575">
        <ele>27.0543213</ele>
        <time>2011-07-24T09:20:33Z</time>
      </trkpt>
      <trkpt lat="47.48643" lon="-0.60561">
        <ele>28.0155029</ele>
        <time>2011-07-24T09:20:37Z</time>
      </trkpt>
      <trkpt lat="47.48642" lon="-0.60557">
        <ele>28.9769287</ele>
        <time>2011-07-24T09:20:38Z</time>
      </trkpt>
      <trkpt lat="47.48637" lon="-0.60544">
        <ele>30.8995361</ele>
        <time>2011-07-24T09:20:42Z</time>
      </trkpt>
      <trkpt lat="47.48633" lon="-0.60528">
        <ele>32.3415527</ele>
        <time>2011-07-24T09:20:47Z</time>
      </trkpt>
      <trkpt lat="47.48629" lon="-0.60516">
        <ele>32.8222656</ele>
        <time>2011-07-24T09:20:51Z</time>
      </trkpt>
      <trkpt lat="47.48623" lon="-0.60498">
        <ele>34.744873</ele>
        <time>2011-07-24T09:20:56Z</time>
      </trkpt>
      <trkpt lat="47.48618" lon="-0.60478">
        <ele>35.7060547</ele>
        <time>2011-07-24T09:21:02Z</time>
      </trkpt>
      <trkpt lat="47.48615" lon="-0.60462">
        <ele>35.2254639</ele>
        <time>2011-07-24T09:21:06Z</time>
      </trkpt>
      <trkpt lat="47.48614" lon="-0.60445">
        <ele>38.5900879</ele>
        <time>2011-07-24T09:21:11Z</time>
      </trkpt>
      <trkpt lat="47.48613" lon="-0.60431">
        <ele>40.5128174</ele>
        <time>2011-07-24T09:21:15Z</time>
      </trkpt>
      <trkpt lat="47.48611" lon="-0.60413">
        <ele>45.3192139</ele>
        <time>2011-07-24T09:21:19Z</time>
      </trkpt>
      <trkpt lat="47.4861" lon="-0.60396">
        <ele>46.2806396</ele>
        <time>2011-07-24T09:21:24Z</time>
      </trkpt>
      <trkpt lat="47.48607" lon="-0.60384">
        <ele>44.838623</ele>
        <time>2011-07-24T09:21:28Z</time>
      </trkpt>
      <trkpt lat="47.48602" lon="-0.60369">
        <ele>43.3966064</ele>
        <time>2011-07-24T09:21:33Z</time>
      </trkpt>
      <trkpt lat="47.48599" lon="-0.60361">
        <ele>46.7612305</ele>
        <time>2011-07-24T09:21:37Z</time>
      </trkpt>
      <trkpt lat="47.48597" lon="-0.60348">
        <ele>44.838623</ele>
        <time>2011-07-24T09:21:42Z</time>
      </trkpt>
      <trkpt lat="47.48594" lon="-0.60337">
        <ele>43.8773193</ele>
        <time>2011-07-24T09:21:46Z</time>
      </trkpt>
      <trkpt lat="47.48592" lon="-0.60326">
        <ele>44.3580322</ele>
        <time>2011-07-24T09:21:50Z</time>
      </trkpt>
      <trkpt lat="47.4859" lon="-0.60323">
        <ele>44.3580322</ele>
        <time>2011-07-24T09:21:51Z</time>
      </trkpt>
      <trkpt lat="47.48588" lon="-0.60315">
        <ele>46.7612305</ele>
        <time>2011-07-24T09:21:54Z</time>
      </trkpt>
      <trkpt lat="47.48587" lon="-0.60302">
        <ele>48.68396</ele>
        <time>2011-07-24T09:21:59Z</time>
      </trkpt>
      <trkpt lat="47.4859" lon="-0.60291">
        <ele>44.838623</ele>
        <time>2011-07-24T09:22:03Z</time>
      </trkpt>
      <trkpt lat="47.48596" lon="-0.60276">
        <ele>42.4354248</ele>
        <time>2011-07-24T09:22:08Z</time>
      </trkpt>
      <trkpt lat="47.48602" lon="-0.60257">
        <ele>42.9160156</ele>
        <time>2011-07-24T09:22:14Z</time>
      </trkpt>
      <trkpt lat="47.48603" lon="-0.60254">
        <ele>43.3966064</ele>
        <time>2011-07-24T09:22:15Z</time>
      </trkpt>
      <trkpt lat="47.48612" lon="-0.6024">
        <ele>41.9547119</ele>
        <time>2011-07-24T09:22:21Z</time>
      </trkpt>
      <trkpt lat="47.48613" lon="-0.60225">
        <ele>40.5128174</ele>
        <time>2011-07-24T09:22:25Z</time>
      </trkpt>
      <trkpt lat="47.48612" lon="-0.60217">
        <ele>39.5512695</ele>
        <time>2011-07-24T09:22:27Z</time>
      </trkpt>
      <trkpt lat="47.48615" lon="-0.60199">
        <ele>38.5900879</ele>
        <time>2011-07-24T09:22:32Z</time>
      </trkpt>
      <trkpt lat="47.48615" lon="-0.60178">
        <ele>37.6286621</ele>
        <time>2011-07-24T09:22:37Z</time>
      </trkpt>
      <trkpt lat="47.48617" lon="-0.60165">
        <ele>38.109375</ele>
        <time>2011-07-24T09:22:40Z</time>
      </trkpt>
      <trkpt lat="47.48617" lon="-0.60142">
        <ele>36.6674805</ele>
        <time>2011-07-24T09:22:45Z</time>
      </trkpt>
      <trkpt lat="47.48616" lon="-0.60122">
        <ele>33.7834473</ele>
        <time>2011-07-24T09:22:50Z</time>
      </trkpt>
      <trkpt lat="47.48616" lon="-0.601">
        <ele>33.3028564</ele>
        <time>2011-07-24T09:22:55Z</time>
      </trkpt>
      <trkpt lat="47.48614" lon="-0.60084">
        <ele>34.744873</ele>
        <time>2011-07-24T09:22:59Z</time>
      </trkpt>
      <trkpt lat="47.48606" lon="-0.6007">
        <ele>34.2641602</ele>
        <time>2011-07-24T09:23:03Z</time>
      </trkpt>
      <trkpt lat="47.48599" lon="-0.60056">
        <ele>31.380127</ele>
        <time>2011-07-24T09:23:07Z</time>
      </trkpt>
      <trkpt lat="47.4859" lon="-0.60044">
        <ele>29.4575195</ele>
        <time>2011-07-24T09:23:11Z</time>
      </trkpt>
      <trkpt lat="47.48579" lon="-0.60043">
        <ele>28.0155029</ele>
        <time>2011-07-24T09:23:15Z</time>
      </trkpt>
      <trkpt lat="47.48568" lon="-0.60049">
        <ele>24.1702881</ele>
        <time>2011-07-24T09:23:20Z</time>
      </trkpt>
      <trkpt lat="47.48559" lon="-0.60053">
        <ele>23.6895752</ele>
        <time>2011-07-24T09:23:24Z</time>
      </trkpt>
      <trkpt lat="47.48545" lon="-0.60067">
        <ele>22.2475586</ele>
        <time>2011-07-24T09:23:30Z</time>
      </trkpt>
      <trkpt lat="47.48536" lon="-0.60078">
        <ele>22.7282715</ele>
        <time>2011-07-24T09:23:34Z</time>
      </trkpt>
      <trkpt lat="47.48526" lon="-0.60089">
        <ele>24.651001</ele>
        <time>2011-07-24T09:23:39Z</time>
      </trkpt>
      <trkpt lat="47.48519" lon="-0.60098">
        <ele>25.6123047</ele>
        <time>2011-07-24T09:23:43Z</time>
      </trkpt>
      <trkpt lat="47.48508" lon="-0.6011">
        <ele>28.4962158</ele>
        <time>2011-07-24T09:23:48Z</time>
      </trkpt>
      <trkpt lat="47.48506" lon="-0.60112">
        <ele>28.4962158</ele>
        <time>2011-07-24T09:23:49Z</time>
      </trkpt>
      <trkpt lat="47.48489" lon="-0.60114">
        <ele>27.5349121</ele>
        <time>2011-07-24T09:23:56Z</time>
      </trkpt>
      <trkpt lat="47.48479" lon="-0.60113">
        <ele>27.5349121</ele>
        <time>2011-07-24T09:24:00Z</time>
      </trkpt>
      <trkpt lat="47.48472" lon="-0.60111">
        <ele>28.4962158</ele>
        <time>2011-07-24T09:24:03Z</time>
      </trkpt>
      <trkpt lat="47.48458" lon="-0.6011">
        <ele>29.4575195</ele>
        <time>2011-07-24T09:24:08Z</time>
      </trkpt>
      <trkpt lat="47.48443" lon="-0.60108">
        <ele>30.4188232</ele>
        <time>2011-07-24T09:24:13Z</time>
      </trkpt>
      <trkpt lat="47.48432" lon="-0.60109">
        <ele>29.9381104</ele>
        <time>2011-07-24T09:24:17Z</time>
      </trkpt>
      <trkpt lat="47.48424" lon="-0.6011">
        <ele>29.9381104</ele>
        <time>2011-07-24T09:24:21Z</time>
      </trkpt>
      <trkpt lat="47.48412" lon="-0.6011">
        <ele>30.8995361</ele>
        <time>2011-07-24T09:24:25Z</time>
      </trkpt>
      <trkpt lat="47.48402" lon="-0.60109">
        <ele>31.8607178</ele>
        <time>2011-07-24T09:24:29Z</time>
      </trkpt>
      <trkpt lat="47.48389" lon="-0.60108">
        <ele>32.3415527</ele>
        <time>2011-07-24T09:24:34Z</time>
      </trkpt>
      <trkpt lat="47.48383" lon="-0.60108">
        <ele>32.8222656</ele>
        <time>2011-07-24T09:24:37Z</time>
      </trkpt>
      <trkpt lat="47.48375" lon="-0.60108">
        <ele>33.7834473</ele>
        <time>2011-07-24T09:24:41Z</time>
      </trkpt>
      <trkpt lat="47.48362" lon="-0.60102">
        <ele>34.2641602</ele>
        <time>2011-07-24T09:24:46Z</time>
      </trkpt>
      <trkpt lat="47.48356" lon="-0.60087">
        <ele>33.3028564</ele>
        <time>2011-07-24T09:24:51Z</time>
      </trkpt>
      <trkpt lat="47.48351" lon="-0.60074">
        <ele>35.7060547</ele>
        <time>2011-07-24T09:24:55Z</time>
      </trkpt>
      <trkpt lat="47.4835" lon="-0.60072">
        <ele>35.7060547</ele>
        <time>2011-07-24T09:24:56Z</time>
      </trkpt>
      <trkpt lat="47.48342" lon="-0.6006">
        <ele>32.3415527</ele>
        <time>2011-07-24T09:25:01Z</time>
      </trkpt>
      <trkpt lat="47.48337" lon="-0.60044">
        <ele>29.9381104</ele>
        <time>2011-07-24T09:25:05Z</time>
      </trkpt>
      <trkpt lat="47.48329" lon="-0.60029">
        <ele>26.5736084</ele>
        <time>2011-07-24T09:25:10Z</time>
      </trkpt>
      <trkpt lat="47.48325" lon="-0.6002">
        <ele>25.1317139</ele>
        <time>2011-07-24T09:25:13Z</time>
      </trkpt>
      <trkpt lat="47.48318" lon="-0.60003">
        <ele>26.5736084</ele>
        <time>2011-07-24T09:25:18Z</time>
      </trkpt>
      <trkpt lat="47.48314" lon="-0.59986">
        <ele>28.0155029</ele>
        <time>2011-07-24T09:25:22Z</time>
      </trkpt>
      <trkpt lat="47.48312" lon="-0.59969">
        <ele>27.5349121</ele>
        <time>2011-07-24T09:25:26Z</time>
      </trkpt>
      <trkpt lat="47.48312" lon="-0.59947">
        <ele>29.4575195</ele>
        <time>2011-07-24T09:25:32Z</time>
      </trkpt>
      <trkpt lat="47.48311" lon="-0.59932">
        <ele>28.0155029</ele>
        <time>2011-07-24T09:25:36Z</time>
      </trkpt>
      <trkpt lat="47.48309" lon="-0.59911">
        <ele>26.5736084</ele>
        <time>2011-07-24T09:25:42Z</time>
      </trkpt>
      <trkpt lat="47.48309" lon="-0.59897">
        <ele>26.0928955</ele>
        <time>2011-07-24T09:25:46Z</time>
      </trkpt>
      <trkpt lat="47.48306" lon="-0.59883">
        <ele>26.0928955</ele>
        <time>2011-07-24T09:25:50Z</time>
      </trkpt>
      <trkpt lat="47.48307" lon="-0.59866">
        <ele>28.0155029</ele>
        <time>2011-07-24T09:25:55Z</time>
      </trkpt>
      <trkpt lat="47.48306" lon="-0.59851">
        <ele>29.4575195</ele>
        <time>2011-07-24T09:25:59Z</time>
      </trkpt>
      <trkpt lat="47.48304" lon="-0.59844">
        <ele>30.4188232</ele>
        <time>2011-07-24T09:26:01Z</time>
      </trkpt>
      <trkpt lat="47.483" lon="-0.59827">
        <ele>33.3028564</ele>
        <time>2011-07-24T09:26:07Z</time>
      </trkpt>
      <trkpt lat="47.48298" lon="-0.59812">
        <ele>33.7834473</ele>
        <time>2011-07-24T09:26:11Z</time>
      </trkpt>
      <trkpt lat="47.48299" lon="-0.59799">
        <ele>32.3415527</ele>
        <time>2011-07-24T09:26:15Z</time>
      </trkpt>
      <trkpt lat="47.483" lon="-0.59784">
        <ele>32.8222656</ele>
        <time>2011-07-24T09:26:19Z</time>
      </trkpt>
      <trkpt lat="47.48298" lon="-0.5977">
        <ele>31.8607178</ele>
        <time>2011-07-24T09:26:23Z</time>
      </trkpt>
      <trkpt lat="47.48297" lon="-0.59768">
        <ele>31.8607178</ele>
        <time>2011-07-24T09:26:24Z</time>
      </trkpt>
      <trkpt lat="47.48294" lon="-0.59747">
        <ele>33.3028564</ele>
        <time>2011-07-24T09:26:29Z</time>
      </trkpt>
      <trkpt lat="47.48291" lon="-0.59731">
        <ele>34.2641602</ele>
        <time>2011-07-24T09:26:33Z</time>
      </trkpt>
      <trkpt lat="47.48289" lon="-0.59714">
        <ele>35.7060547</ele>
        <time>2011-07-24T09:26:37Z</time>
      </trkpt>
      <trkpt lat="47.48286" lon="-0.59692">
        <ele>29.9381104</ele>
        <time>2011-07-24T09:26:43Z</time>
      </trkpt>
      <trkpt lat="47.48285" lon="-0.59678">
        <ele>26.0928955</ele>
        <time>2011-07-24T09:26:47Z</time>
      </trkpt>
      <trkpt lat="47.48281" lon="-0.59662">
        <ele>21.286377</ele>
        <time>2011-07-24T09:26:52Z</time>
      </trkpt>
      <trkpt lat="47.48277" lon="-0.59635">
        <ele>26.5736084</ele>
        <time>2011-07-24T09:26:58Z</time>
      </trkpt>
      <trkpt lat="47.48273" lon="-0.59614">
        <ele>27.0543213</ele>
        <time>2011-07-24T09:27:04Z</time>
      </trkpt>
      <trkpt lat="47.4827" lon="-0.59604">
        <ele>27.0543213</ele>
        <time>2011-07-24T09:27:07Z</time>
      </trkpt>
      <trkpt lat="47.48267" lon="-0.59584">
        <ele>29.4575195</ele>
        <time>2011-07-24T09:27:13Z</time>
      </trkpt>
      <trkpt lat="47.48264" lon="-0.59563">
        <ele>31.8607178</ele>
        <time>2011-07-24T09:27:19Z</time>
      </trkpt>
      <trkpt lat="47.48266" lon="-0.59544">
        <ele>33.3028564</ele>
        <time>2011-07-24T09:27:24Z</time>
      </trkpt>
      <trkpt lat="47.48267" lon="-0.59526">
        <ele>35.2254639</ele>
        <time>2011-07-24T09:27:29Z</time>
      </trkpt>
      <trkpt lat="47.48268" lon="-0.59518">
        <ele>34.744873</ele>
        <time>2011-07-24T09:27:31Z</time>
      </trkpt>
      <trkpt lat="47.48264" lon="-0.59497">
        <ele>36.6674805</ele>
        <time>2011-07-24T09:27:37Z</time>
      </trkpt>
      <trkpt lat="47.48261" lon="-0.59481">
        <ele>38.109375</ele>
        <time>2011-07-24T09:27:42Z</time>
      </trkpt>
      <trkpt lat="47.48258" lon="-0.59463">
        <ele>39.5512695</ele>
        <time>2011-07-24T09:27:48Z</time>
      </trkpt>
      <trkpt lat="47.48257" lon="-0.59452">
        <ele>40.5128174</ele>
        <time>2011-07-24T09:27:51Z</time>
      </trkpt>
      <trkpt lat="47.48256" lon="-0.59434">
        <ele>42.9160156</ele>
        <time>2011-07-24T09:27:56Z</time>
      </trkpt>
      <trkpt lat="47.48254" lon="-0.59414">
        <ele>40.9934082</ele>
        <time>2011-07-24T09:28:01Z</time>
      </trkpt>
      <trkpt lat="47.48254" lon="-0.59398">
        <ele>38.5900879</ele>
        <time>2011-07-24T09:28:05Z</time>
      </trkpt>
      <trkpt lat="47.48252" lon="-0.5938">
        <ele>35.7060547</ele>
        <time>2011-07-24T09:28:10Z</time>
      </trkpt>
      <trkpt lat="47.48245" lon="-0.59357">
        <ele>35.2254639</ele>
        <time>2011-07-24T09:28:16Z</time>
      </trkpt>
      <trkpt lat="47.4824" lon="-0.59346">
        <ele>34.2641602</ele>
        <time>2011-07-24T09:28:20Z</time>
      </trkpt>
      <trkpt lat="47.48232" lon="-0.59334">
        <ele>32.8222656</ele>
        <time>2011-07-24T09:28:24Z</time>
      </trkpt>
      <trkpt lat="47.48225" lon="-0.59322">
        <ele>28.9769287</ele>
        <time>2011-07-24T09:28:28Z</time>
      </trkpt>
      <trkpt lat="47.48224" lon="-0.59301">
        <ele>27.0543213</ele>
        <time>2011-07-24T09:28:33Z</time>
      </trkpt>
      <trkpt lat="47.48224" lon="-0.5929">
        <ele>26.0928955</ele>
        <time>2011-07-24T09:28:36Z</time>
      </trkpt>
      <trkpt lat="47.48222" lon="-0.59274">
        <ele>26.0928955</ele>
        <time>2011-07-24T09:28:41Z</time>
      </trkpt>
      <trkpt lat="47.48224" lon="-0.59271">
        <ele>26.5736084</ele>
        <time>2011-07-24T09:28:42Z</time>
      </trkpt>
      <trkpt lat="47.48231" lon="-0.59248">
        <ele>30.4188232</ele>
        <time>2011-07-24T09:28:48Z</time>
      </trkpt>
      <trkpt lat="47.48232" lon="-0.59227">
        <ele>32.3415527</ele>
        <time>2011-07-24T09:28:53Z</time>
      </trkpt>
      <trkpt lat="47.48231" lon="-0.59218">
        <ele>31.8607178</ele>
        <time>2011-07-24T09:28:56Z</time>
      </trkpt>
      <trkpt lat="47.48231" lon="-0.59198">
        <ele>33.7834473</ele>
        <time>2011-07-24T09:29:01Z</time>
      </trkpt>
      <trkpt lat="47.48233" lon="-0.59177">
        <ele>32.8222656</ele>
        <time>2011-07-24T09:29:07Z</time>
      </trkpt>
      <trkpt lat="47.48236" lon="-0.59159">
        <ele>34.744873</ele>
        <time>2011-07-24T09:29:12Z</time>
      </trkpt>
      <trkpt lat="47.48236" lon="-0.59156">
        <ele>35.2254639</ele>
        <time>2011-07-24T09:29:13Z</time>
      </trkpt>
      <trkpt lat="47.48241" lon="-0.59132">
        <ele>35.7060547</ele>
        <time>2011-07-24T09:29:20Z</time>
      </trkpt>
      <trkpt lat="47.48243" lon="-0.59117">
        <ele>37.1480713</ele>
        <time>2011-07-24T09:29:24Z</time>
      </trkpt>
      <trkpt lat="47.48246" lon="-0.59094">
        <ele>37.1480713</ele>
        <time>2011-07-24T09:29:30Z</time>
      </trkpt>
      <trkpt lat="47.48243" lon="-0.59078">
        <ele>36.6674805</ele>
        <time>2011-07-24T09:29:34Z</time>
      </trkpt>
      <trkpt lat="47.48239" lon="-0.59053">
        <ele>37.1480713</ele>
        <time>2011-07-24T09:29:40Z</time>
      </trkpt>
      <trkpt lat="47.48238" lon="-0.59044">
        <ele>37.1480713</ele>
        <time>2011-07-24T09:29:43Z</time>
      </trkpt>
      <trkpt lat="47.48234" lon="-0.59035">
        <ele>39.0706787</ele>
        <time>2011-07-24T09:29:46Z</time>
      </trkpt>
      <trkpt lat="47.48228" lon="-0.59011">
        <ele>41.473999</ele>
        <time>2011-07-24T09:29:52Z</time>
      </trkpt>
      <trkpt lat="47.48224" lon="-0.58992">
        <ele>38.109375</ele>
        <time>2011-07-24T09:29:57Z</time>
      </trkpt>
      <trkpt lat="47.4822" lon="-0.58973">
        <ele>35.2254639</ele>
        <time>2011-07-24T09:30:02Z</time>
      </trkpt>
      <trkpt lat="47.48211" lon="-0.58952">
        <ele>31.8607178</ele>
        <time>2011-07-24T09:30:08Z</time>
      </trkpt>
      <trkpt lat="47.48209" lon="-0.58945">
        <ele>32.3415527</ele>
        <time>2011-07-24T09:30:10Z</time>
      </trkpt>
      <trkpt lat="47.48206" lon="-0.58925">
        <ele>37.6286621</ele>
        <time>2011-07-24T09:30:15Z</time>
      </trkpt>
      <trkpt lat="47.48199" lon="-0.58913">
        <ele>36.1867676</ele>
        <time>2011-07-24T09:30:20Z</time>
      </trkpt>
      <trkpt lat="47.48197" lon="-0.58891">
        <ele>34.2641602</ele>
        <time>2011-07-24T09:30:26Z</time>
      </trkpt>
      <trkpt lat="47.48193" lon="-0.58869">
        <ele>28.4962158</ele>
        <time>2011-07-24T09:30:32Z</time>
      </trkpt>
      <trkpt lat="47.48188" lon="-0.58855">
        <ele>26.5736084</ele>
        <time>2011-07-24T09:30:36Z</time>
      </trkpt>
      <trkpt lat="47.48185" lon="-0.58837">
        <ele>26.5736084</ele>
        <time>2011-07-24T09:30:41Z</time>
      </trkpt>
      <trkpt lat="47.4818" lon="-0.58818">
        <ele>27.0543213</ele>
        <time>2011-07-24T09:30:46Z</time>
      </trkpt>
      <trkpt lat="47.48178" lon="-0.58799">
        <ele>27.5349121</ele>
        <time>2011-07-24T09:30:51Z</time>
      </trkpt>
      <trkpt lat="47.48177" lon="-0.58795">
        <ele>27.0543213</ele>
        <time>2011-07-24T09:30:52Z</time>
      </trkpt>
      <trkpt lat="47.48176" lon="-0.58779">
        <ele>27.0543213</ele>
        <time>2011-07-24T09:30:56Z</time>
      </trkpt>
      <trkpt lat="47.48172" lon="-0.58756">
        <ele>26.5736084</ele>
        <time>2011-07-24T09:31:02Z</time>
      </trkpt>
      <trkpt lat="47.48169" lon="-0.58735">
        <ele>31.380127</ele>
        <time>2011-07-24T09:31:08Z</time>
      </trkpt>
      <trkpt lat="47.48166" lon="-0.58715">
        <ele>31.380127</ele>
        <time>2011-07-24T09:31:14Z</time>
      </trkpt>
      <trkpt lat="47.48161" lon="-0.58698">
        <ele>31.380127</ele>
        <time>2011-07-24T09:31:19Z</time>
      </trkpt>
      <trkpt lat="47.48153" lon="-0.58683">
        <ele>33.3028564</ele>
        <time>2011-07-24T09:31:24Z</time>
      </trkpt>
      <trkpt lat="47.48146" lon="-0.58671">
        <ele>33.7834473</ele>
        <time>2011-07-24T09:31:28Z</time>
      </trkpt>
      <trkpt lat="47.48137" lon="-0.58656">
        <ele>35.2254639</ele>
        <time>2011-07-24T09:31:33Z</time>
      </trkpt>
      <trkpt lat="47.48131" lon="-0.58646">
        <ele>36.6674805</ele>
        <time>2011-07-24T09:31:36Z</time>
      </trkpt>
      <trkpt lat="47.48121" lon="-0.5863">
        <ele>42.9160156</ele>
        <time>2011-07-24T09:31:42Z</time>
      </trkpt>
      <trkpt lat="47.48113" lon="-0.58619">
        <ele>46.2806396</ele>
        <time>2011-07-24T09:31:47Z</time>
      </trkpt>
      <trkpt lat="47.48103" lon="-0.58611">
        <ele>44.838623</ele>
        <time>2011-07-24T09:31:52Z</time>
      </trkpt>
      <trkpt lat="47.48097" lon="-0.58604">
        <ele>46.2806396</ele>
        <time>2011-07-24T09:31:55Z</time>
      </trkpt>
      <trkpt lat="47.48087" lon="-0.58598">
        <ele>45.3192139</ele>
        <time>2011-07-24T09:32:00Z</time>
      </trkpt>
      <trkpt lat="47.48079" lon="-0.58592">
        <ele>46.7612305</ele>
        <time>2011-07-24T09:32:04Z</time>
      </trkpt>
      <trkpt lat="47.4807" lon="-0.58584">
        <ele>46.2806396</ele>
        <time>2011-07-24T09:32:08Z</time>
      </trkpt>
      <trkpt lat="47.48065" lon="-0.58579">
        <ele>46.7612305</ele>
        <time>2011-07-24T09:32:10Z</time>
      </trkpt>
      <trkpt lat="47.48047" lon="-0.58569">
        <ele>47.7225342</ele>
        <time>2011-07-24T09:32:17Z</time>
      </trkpt>
      <trkpt lat="47.48029" lon="-0.58563">
        <ele>27.0543213</ele>
        <time>2011-07-24T09:32:22Z</time>
      </trkpt>
      <trkpt lat="47.48025" lon="-0.58559">
        <ele>40.9934082</ele>
        <time>2011-07-24T09:32:25Z</time>
      </trkpt>
      <trkpt lat="47.48018" lon="-0.58547">
        <ele>34.2641602</ele>
        <time>2011-07-24T09:32:30Z</time>
      </trkpt>
      <trkpt lat="47.48013" lon="-0.58537">
        <ele>32.3415527</ele>
        <time>2011-07-24T09:32:34Z</time>
      </trkpt>
      <trkpt lat="47.48008" lon="-0.58528">
        <ele>29.4575195</ele>
        <time>2011-07-24T09:32:37Z</time>
      </trkpt>
      <trkpt lat="47.48005" lon="-0.58522">
        <ele>28.0155029</ele>
        <time>2011-07-24T09:32:39Z</time>
      </trkpt>
      <trkpt lat="47.48001" lon="-0.58507">
        <ele>28.9769287</ele>
        <time>2011-07-24T09:32:44Z</time>
      </trkpt>
      <trkpt lat="47.47998" lon="-0.58502">
        <ele>27.5349121</ele>
        <time>2011-07-24T09:32:46Z</time>
      </trkpt>
      <trkpt lat="47.4799" lon="-0.58484">
        <ele>26.0928955</ele>
        <time>2011-07-24T09:32:52Z</time>
      </trkpt>
      <trkpt lat="47.47985" lon="-0.58472">
        <ele>25.1317139</ele>
        <time>2011-07-24T09:32:56Z</time>
      </trkpt>
      <trkpt lat="47.47977" lon="-0.58457">
        <ele>23.6895752</ele>
        <time>2011-07-24T09:33:01Z</time>
      </trkpt>
      <trkpt lat="47.47975" lon="-0.58445">
        <ele>25.1317139</ele>
        <time>2011-07-24T09:33:05Z</time>
      </trkpt>
      <trkpt lat="47.47973" lon="-0.58427">
        <ele>24.1702881</ele>
        <time>2011-07-24T09:33:10Z</time>
      </trkpt>
      <trkpt lat="47.47969" lon="-0.58404">
        <ele>25.1317139</ele>
        <time>2011-07-24T09:33:16Z</time>
      </trkpt>
      <trkpt lat="47.47969" lon="-0.58401">
        <ele>25.1317139</ele>
        <time>2011-07-24T09:33:17Z</time>
      </trkpt>
      <trkpt lat="47.47965" lon="-0.58383">
        <ele>26.0928955</ele>
        <time>2011-07-24T09:33:22Z</time>
      </trkpt>
      <trkpt lat="47.47959" lon="-0.58365">
        <ele>24.1702881</ele>
        <time>2011-07-24T09:33:27Z</time>
      </trkpt>
      <trkpt lat="47.47955" lon="-0.58359">
        <ele>27.5349121</ele>
        <time>2011-07-24T09:33:30Z</time>
      </trkpt>
      <trkpt lat="47.4794" lon="-0.58351">
        <ele>26.0928955</ele>
        <time>2011-07-24T09:33:37Z</time>
      </trkpt>
      <trkpt lat="47.47934" lon="-0.58346">
        <ele>27.0543213</ele>
        <time>2011-07-24T09:33:39Z</time>
      </trkpt>
      <trkpt lat="47.47927" lon="-0.58333">
        <ele>27.5349121</ele>
        <time>2011-07-24T09:33:43Z</time>
      </trkpt>
      <trkpt lat="47.47921" lon="-0.58312">
        <ele>28.0155029</ele>
        <time>2011-07-24T09:33:49Z</time>
      </trkpt>
      <trkpt lat="47.47917" lon="-0.583">
        <ele>28.0155029</ele>
        <time>2011-07-24T09:33:53Z</time>
      </trkpt>
      <trkpt lat="47.47912" lon="-0.58281">
        <ele>28.0155029</ele>
        <time>2011-07-24T09:33:58Z</time>
      </trkpt>
      <trkpt lat="47.47913" lon="-0.58261">
        <ele>31.8607178</ele>
        <time>2011-07-24T09:34:03Z</time>
      </trkpt>
      <trkpt lat="47.47913" lon="-0.58254">
        <ele>33.7834473</ele>
        <time>2011-07-24T09:34:05Z</time>
      </trkpt>
      <trkpt lat="47.47906" lon="-0.58233">
        <ele>36.1867676</ele>
        <time>2011-07-24T09:34:11Z</time>
      </trkpt>
      <trkpt lat="47.47899" lon="-0.5822">
        <ele>39.5512695</ele>
        <time>2011-07-24T09:34:16Z</time>
      </trkpt>
      <trkpt lat="47.4789" lon="-0.58214">
        <ele>42.9160156</ele>
        <time>2011-07-24T09:34:20Z</time>
      </trkpt>
      <trkpt lat="47.47878" lon="-0.58207">
        <ele>40.5128174</ele>
        <time>2011-07-24T09:34:25Z</time>
      </trkpt>
      <trkpt lat="47.47871" lon="-0.582">
        <ele>40.9934082</ele>
        <time>2011-07-24T09:34:29Z</time>
      </trkpt>
      <trkpt lat="47.47866" lon="-0.58183">
        <ele>36.6674805</ele>
        <time>2011-07-24T09:34:35Z</time>
      </trkpt>
      <trkpt lat="47.47864" lon="-0.58166">
        <ele>34.744873</ele>
        <time>2011-07-24T09:34:40Z</time>
      </trkpt>
      <trkpt lat="47.4786" lon="-0.58153">
        <ele>33.3028564</ele>
        <time>2011-07-24T09:34:44Z</time>
      </trkpt>
      <trkpt lat="47.47857" lon="-0.58142">
        <ele>32.3415527</ele>
        <time>2011-07-24T09:34:48Z</time>
      </trkpt>
      <trkpt lat="47.47857" lon="-0.58132">
        <ele>32.8222656</ele>
        <time>2011-07-24T09:34:51Z</time>
      </trkpt>
      <trkpt lat="47.47857" lon="-0.58114">
        <ele>33.3028564</ele>
        <time>2011-07-24T09:34:56Z</time>
      </trkpt>
      <trkpt lat="47.47853" lon="-0.58096">
        <ele>29.9381104</ele>
        <time>2011-07-24T09:35:01Z</time>
      </trkpt>
      <trkpt lat="47.47847" lon="-0.5808">
        <ele>29.9381104</ele>
        <time>2011-07-24T09:35:06Z</time>
      </trkpt>
      <trkpt lat="47.47841" lon="-0.58067">
        <ele>31.8607178</ele>
        <time>2011-07-24T09:35:12Z</time>
      </trkpt>
      <trkpt lat="47.4784" lon="-0.58065">
        <ele>32.3415527</ele>
        <time>2011-07-24T09:35:13Z</time>
      </trkpt>
      <trkpt lat="47.47828" lon="-0.58056">
        <ele>35.7060547</ele>
        <time>2011-07-24T09:35:20Z</time>
      </trkpt>
      <trkpt lat="47.47817" lon="-0.5806">
        <ele>31.380127</ele>
        <time>2011-07-24T09:35:24Z</time>
      </trkpt>
      <trkpt lat="47.47815" lon="-0.58072">
        <ele>34.2641602</ele>
        <time>2011-07-24T09:35:29Z</time>
      </trkpt>
      <trkpt lat="47.47813" lon="-0.58075">
        <ele>34.744873</ele>
        <time>2011-07-24T09:35:30Z</time>
      </trkpt>
      <trkpt lat="47.47801" lon="-0.58098">
        <ele>36.1867676</ele>
        <time>2011-07-24T09:35:37Z</time>
      </trkpt>
      <trkpt lat="47.47793" lon="-0.58113">
        <ele>35.7060547</ele>
        <time>2011-07-24T09:35:42Z</time>
      </trkpt>
      <trkpt lat="47.47783" lon="-0.58127">
        <ele>35.2254639</ele>
        <time>2011-07-24T09:35:46Z</time>
      </trkpt>
      <trkpt lat="47.47774" lon="-0.58136">
        <ele>34.2641602</ele>
        <time>2011-07-24T09:35:50Z</time>
      </trkpt>
      <trkpt lat="47.47767" lon="-0.58145">
        <ele>35.2254639</ele>
        <time>2011-07-24T09:35:54Z</time>
      </trkpt>
      <trkpt lat="47.47763" lon="-0.58156">
        <ele>35.7060547</ele>
        <time>2011-07-24T09:35:58Z</time>
      </trkpt>
      <trkpt lat="47.47751" lon="-0.58164">
        <ele>35.2254639</ele>
        <time>2011-07-24T09:36:03Z</time>
      </trkpt>
      <trkpt lat="47.47738" lon="-0.58181">
        <ele>32.8222656</ele>
        <time>2011-07-24T09:36:09Z</time>
      </trkpt>
      <trkpt lat="47.47733" lon="-0.58192">
        <ele>32.3415527</ele>
        <time>2011-07-24T09:36:13Z</time>
      </trkpt>
      <trkpt lat="47.47726" lon="-0.58205">
        <ele>33.3028564</ele>
        <time>2011-07-24T09:36:17Z</time>
      </trkpt>
      <trkpt lat="47.47723" lon="-0.58217">
        <ele>34.2641602</ele>
        <time>2011-07-24T09:36:21Z</time>
      </trkpt>
      <trkpt lat="47.47716" lon="-0.58233">
        <ele>36.1867676</ele>
        <time>2011-07-24T09:36:27Z</time>
      </trkpt>
      <trkpt lat="47.47714" lon="-0.58235">
        <ele>36.6674805</ele>
        <time>2011-07-24T09:36:28Z</time>
      </trkpt>
      <trkpt lat="47.47701" lon="-0.58241">
        <ele>38.5900879</ele>
        <time>2011-07-24T09:36:33Z</time>
      </trkpt>
      <trkpt lat="47.47694" lon="-0.58244">
        <ele>39.5512695</ele>
        <time>2011-07-24T09:36:36Z</time>
      </trkpt>
      <trkpt lat="47.47682" lon="-0.58252">
        <ele>40.5128174</ele>
        <time>2011-07-24T09:36:41Z</time>
      </trkpt>
      <trkpt lat="47.47672" lon="-0.58252">
        <ele>40.5128174</ele>
        <time>2011-07-24T09:36:45Z</time>
      </trkpt>
      <trkpt lat="47.47655" lon="-0.58256">
        <ele>36.1867676</ele>
        <time>2011-07-24T09:36:50Z</time>
      </trkpt>
      <trkpt lat="47.47653" lon="-0.58257">
        <ele>35.7060547</ele>
        <time>2011-07-24T09:36:51Z</time>
      </trkpt>
      <trkpt lat="47.47636" lon="-0.5827">
        <ele>39.0706787</ele>
        <time>2011-07-24T09:36:57Z</time>
      </trkpt>
      <trkpt lat="47.47626" lon="-0.58283">
        <ele>35.7060547</ele>
        <time>2011-07-24T09:37:02Z</time>
      </trkpt>
      <trkpt lat="47.4762" lon="-0.58293">
        <ele>34.744873</ele>
        <time>2011-07-24T09:37:06Z</time>
      </trkpt>
      <trkpt lat="47.47613" lon="-0.58299">
        <ele>35.2254639</ele>
        <time>2011-07-24T09:37:09Z</time>
      </trkpt>
      <trkpt lat="47.47602" lon="-0.58293">
        <ele>35.7060547</ele>
        <time>2011-07-24T09:37:15Z</time>
      </trkpt>
      <trkpt lat="47.47589" lon="-0.58286">
        <ele>37.6286621</ele>
        <time>2011-07-24T09:37:21Z</time>
      </trkpt>
      <trkpt lat="47.47583" lon="-0.58285">
        <ele>37.6286621</ele>
        <time>2011-07-24T09:37:24Z</time>
      </trkpt>
      <trkpt lat="47.47572" lon="-0.58282">
        <ele>38.109375</ele>
        <time>2011-07-24T09:37:29Z</time>
      </trkpt>
      <trkpt lat="47.47557" lon="-0.58281">
        <ele>33.3028564</ele>
        <time>2011-07-24T09:37:35Z</time>
      </trkpt>
      <trkpt lat="47.4755" lon="-0.58273">
        <ele>31.8607178</ele>
        <time>2011-07-24T09:37:39Z</time>
      </trkpt>
      <trkpt lat="47.47541" lon="-0.58261">
        <ele>27.5349121</ele>
        <time>2011-07-24T09:37:44Z</time>
      </trkpt>
      <trkpt lat="47.47538" lon="-0.58255">
        <ele>28.0155029</ele>
        <time>2011-07-24T09:37:46Z</time>
      </trkpt>
      <trkpt lat="47.47531" lon="-0.58246">
        <ele>27.0543213</ele>
        <time>2011-07-24T09:37:51Z</time>
      </trkpt>
      <trkpt lat="47.47534" lon="-0.58222">
        <ele>28.9769287</ele>
        <time>2011-07-24T09:37:57Z</time>
      </trkpt>
      <trkpt lat="47.47534" lon="-0.58203">
        <ele>30.8995361</ele>
        <time>2011-07-24T09:38:02Z</time>
      </trkpt>
      <trkpt lat="47.47533" lon="-0.58193">
        <ele>31.8607178</ele>
        <time>2011-07-24T09:38:05Z</time>
      </trkpt>
      <trkpt lat="47.4753" lon="-0.5818">
        <ele>33.3028564</ele>
        <time>2011-07-24T09:38:11Z</time>
      </trkpt>
      <trkpt lat="47.47529" lon="-0.58175">
        <ele>33.7834473</ele>
        <time>2011-07-24T09:38:13Z</time>
      </trkpt>
      <trkpt lat="47.47524" lon="-0.58156">
        <ele>33.3028564</ele>
        <time>2011-07-24T09:38:20Z</time>
      </trkpt>
      <trkpt lat="47.47522" lon="-0.5815">
        <ele>33.3028564</ele>
        <time>2011-07-24T09:38:22Z</time>
      </trkpt>
      <trkpt lat="47.47518" lon="-0.58137">
        <ele>32.3415527</ele>
        <time>2011-07-24T09:38:26Z</time>
      </trkpt>
      <trkpt lat="47.47518" lon="-0.58134">
        <ele>32.8222656</ele>
        <time>2011-07-24T09:38:27Z</time>
      </trkpt>
      <trkpt lat="47.47519" lon="-0.58126">
        <ele>33.7834473</ele>
        <time>2011-07-24T09:38:29Z</time>
      </trkpt>
      <trkpt lat="47.4752" lon="-0.58108">
        <ele>36.6674805</ele>
        <time>2011-07-24T09:38:34Z</time>
      </trkpt>
      <trkpt lat="47.47522" lon="-0.58099">
        <ele>38.109375</ele>
        <time>2011-07-24T09:38:36Z</time>
      </trkpt>
      <trkpt lat="47.4752" lon="-0.58081">
        <ele>39.5512695</ele>
        <time>2011-07-24T09:38:41Z</time>
      </trkpt>
      <trkpt lat="47.47519" lon="-0.58064">
        <ele>40.5128174</ele>
        <time>2011-07-24T09:38:45Z</time>
      </trkpt>
      <trkpt lat="47.47519" lon="-0.58054">
        <ele>40.5128174</ele>
        <time>2011-07-24T09:38:48Z</time>
      </trkpt>
      <trkpt lat="47.47519" lon="-0.58031">
        <ele>42.4354248</ele>
        <time>2011-07-24T09:38:54Z</time>
      </trkpt>
      <trkpt lat="47.47519" lon="-0.58018">
        <ele>42.9160156</ele>
        <time>2011-07-24T09:38:58Z</time>
      </trkpt>
      <trkpt lat="47.47518" lon="-0.58015">
        <ele>41.9547119</ele>
        <time>2011-07-24T09:38:59Z</time>
      </trkpt>
      <trkpt lat="47.47515" lon="-0.58">
        <ele>39.0706787</ele>
        <time>2011-07-24T09:39:03Z</time>
      </trkpt>
      <trkpt lat="47.47514" lon="-0.5799">
        <ele>37.6286621</ele>
        <time>2011-07-24T09:39:06Z</time>
      </trkpt>
      <trkpt lat="47.47518" lon="-0.57977">
        <ele>36.6674805</ele>
        <time>2011-07-24T09:39:09Z</time>
      </trkpt>
      <trkpt lat="47.47515" lon="-0.57961">
        <ele>34.2641602</ele>
        <time>2011-07-24T09:39:14Z</time>
      </trkpt>
      <trkpt lat="47.47512" lon="-0.57948">
        <ele>32.3415527</ele>
        <time>2011-07-24T09:39:18Z</time>
      </trkpt>
      <trkpt lat="47.47512" lon="-0.57945">
        <ele>32.3415527</ele>
        <time>2011-07-24T09:39:19Z</time>
      </trkpt>
      <trkpt lat="47.47504" lon="-0.57923">
        <ele>28.0155029</ele>
        <time>2011-07-24T09:39:25Z</time>
      </trkpt>
      <trkpt lat="47.475" lon="-0.57905">
        <ele>28.4962158</ele>
        <time>2011-07-24T09:39:30Z</time>
      </trkpt>
      <trkpt lat="47.47496" lon="-0.57886">
        <ele>29.9381104</ele>
        <time>2011-07-24T09:39:35Z</time>
      </trkpt>
      <trkpt lat="47.47492" lon="-0.57871">
        <ele>27.5349121</ele>
        <time>2011-07-24T09:39:39Z</time>
      </trkpt>
      <trkpt lat="47.47489" lon="-0.57856">
        <ele>26.5736084</ele>
        <time>2011-07-24T09:39:43Z</time>
      </trkpt>
      <trkpt lat="47.47486" lon="-0.57841">
        <ele>27.0543213</ele>
        <time>2011-07-24T09:39:47Z</time>
      </trkpt>
      <trkpt lat="47.47482" lon="-0.57821">
        <ele>28.9769287</ele>
        <time>2011-07-24T09:39:52Z</time>
      </trkpt>
      <trkpt lat="47.47478" lon="-0.57806">
        <ele>30.4188232</ele>
        <time>2011-07-24T09:39:56Z</time>
      </trkpt>
      <trkpt lat="47.4747" lon="-0.57787">
        <ele>31.8607178</ele>
        <time>2011-07-24T09:40:01Z</time>
      </trkpt>
      <trkpt lat="47.47462" lon="-0.57776">
        <ele>31.380127</ele>
        <time>2011-07-24T09:40:06Z</time>
      </trkpt>
      <trkpt lat="47.47452" lon="-0.57765">
        <ele>31.380127</ele>
        <time>2011-07-24T09:40:11Z</time>
      </trkpt>
      <trkpt lat="47.47445" lon="-0.57756">
        <ele>30.8995361</ele>
        <time>2011-07-24T09:40:15Z</time>
      </trkpt>
      <trkpt lat="47.47434" lon="-0.57746">
        <ele>33.7834473</ele>
        <time>2011-07-24T09:40:20Z</time>
      </trkpt>
      <trkpt lat="47.47428" lon="-0.57723">
        <ele>32.8222656</ele>
        <time>2011-07-24T09:40:26Z</time>
      </trkpt>
      <trkpt lat="47.47425" lon="-0.57712">
        <ele>30.8995361</ele>
        <time>2011-07-24T09:40:29Z</time>
      </trkpt>
    </trkseg>
  </trk>
</gpx>